<?xml version='1.0' encoding='UTF-8'?><gpx version="1.1" creator="JPX - https://github.com/jenetics/jpx" xmlns="http://www.topografix.com/GPX/1/1"><trk><trkseg><trkpt lat="43.4319102" lon="0.5839549"><ele>200.00000000000003</ele><time>2026-04-23T09:28:37.477Z</time></trkpt><trkpt lat="43.4319277" lon="0.5840458"><ele>200.0</ele><time>2026-04-23T09:28:41.472Z</time></trkpt><trkpt lat="43.4319332" lon="0.5841473"><ele>200.0</ele><time>2026-04-23T09:28:45.472Z</time></trkpt><trkpt lat="43.4319348" lon="0.5842398"><ele>200.0</ele><time>2026-04-23T09:28:49.472Z</time></trkpt><trkpt lat="43.4319395" lon="0.5843329"><ele>200.0</ele><time>2026-04-23T09:28:54.472Z</time></trkpt><trkpt lat="43.4319551" lon="0.584438"><ele>200.00000000000003</ele><time>2026-04-23T09:29:00.473Z</time></trkpt><trkpt lat="43.4319692" lon="0.5845354"><ele>200.0</ele><time>2026-04-23T09:29:05.472Z</time></trkpt><trkpt lat="43.4319919" lon="0.5846256"><ele>200.16666666666669</ele><time>2026-04-23T09:29:08.472Z</time></trkpt><trkpt lat="43.4320189" lon="0.5847308"><ele>200.33333333333334</ele><time>2026-04-23T09:29:11.472Z</time></trkpt><trkpt lat="43.4320537" lon="0.5848421"><ele>200.5</ele><time>2026-04-23T09:29:14.473Z</time></trkpt><trkpt lat="43.4320908" lon="0.5849586"><ele>200.66666666666669</ele><time>2026-04-23T09:29:17.472Z</time></trkpt><trkpt lat="43.4321199" lon="0.5850379"><ele>200.83333333333334</ele><time>2026-04-23T09:29:19.472Z</time></trkpt><trkpt lat="43.432161" lon="0.5851527"><ele>201.0</ele><time>2026-04-23T09:29:22.473Z</time></trkpt><trkpt lat="43.4321861" lon="0.5852327"><ele>201.0</ele><time>2026-04-23T09:29:24.472Z</time></trkpt><trkpt lat="43.4322137" lon="0.5853121"><ele>201.0</ele><time>2026-04-23T09:29:26.472Z</time></trkpt><trkpt lat="43.4322405" lon="0.585392"><ele>201.0</ele><time>2026-04-23T09:29:28.472Z</time></trkpt><trkpt lat="43.432277" lon="0.5855127"><ele>201.0</ele><time>2026-04-23T09:29:31.472Z</time></trkpt><trkpt lat="43.4323034" lon="0.585592"><ele>201.0</ele><time>2026-04-23T09:29:33.473Z</time></trkpt><trkpt lat="43.4323329" lon="0.5856718"><ele>201.0</ele><time>2026-04-23T09:29:35.472Z</time></trkpt><trkpt lat="43.4323602" lon="0.585753"><ele>201.0</ele><time>2026-04-23T09:29:37.472Z</time></trkpt><trkpt lat="43.4323824" lon="0.5858357"><ele>200.66666666666666</ele><time>2026-04-23T09:29:39.472Z</time></trkpt><trkpt lat="43.4324092" lon="0.585916"><ele>200.33333333333331</ele><time>2026-04-23T09:29:41.472Z</time></trkpt><trkpt lat="43.432449" lon="0.5860272"><ele>200.0</ele><time>2026-04-23T09:29:44.472Z</time></trkpt><trkpt lat="43.4324856" lon="0.5861427"><ele>199.66666666666666</ele><time>2026-04-23T09:29:47.473Z</time></trkpt><trkpt lat="43.4325232" lon="0.5862471"><ele>199.33333333333331</ele><time>2026-04-23T09:29:50.473Z</time></trkpt><trkpt lat="43.4325483" lon="0.5863515"><ele>199.0</ele><time>2026-04-23T09:29:53.473Z</time></trkpt><trkpt lat="43.4325775" lon="0.5864502"><ele>198.99999999999997</ele><time>2026-04-23T09:29:56.472Z</time></trkpt><trkpt lat="43.4326161" lon="0.5865523"><ele>199.0</ele><time>2026-04-23T09:29:59.472Z</time></trkpt><trkpt lat="43.4326648" lon="0.5866603"><ele>199.0</ele><time>2026-04-23T09:30:02.472Z</time></trkpt><trkpt lat="43.4327003" lon="0.5867755"><ele>199.0</ele><time>2026-04-23T09:30:05.472Z</time></trkpt><trkpt lat="43.4327274" lon="0.5868827"><ele>198.99999999999997</ele><time>2026-04-23T09:30:08.473Z</time></trkpt><trkpt lat="43.4327572" lon="0.5869828"><ele>199.0</ele><time>2026-04-23T09:30:11.473Z</time></trkpt><trkpt lat="43.4327843" lon="0.5870833"><ele>199.33333333333331</ele><time>2026-04-23T09:30:14.472Z</time></trkpt><trkpt lat="43.4328079" lon="0.587181"><ele>199.66666666666666</ele><time>2026-04-23T09:30:17.472Z</time></trkpt><trkpt lat="43.4328285" lon="0.5872778"><ele>200.0</ele><time>2026-04-23T09:30:20.472Z</time></trkpt><trkpt lat="43.4328518" lon="0.5873881"><ele>200.33333333333331</ele><time>2026-04-23T09:30:23.472Z</time></trkpt><trkpt lat="43.4328652" lon="0.5875119"><ele>200.66666666666666</ele><time>2026-04-23T09:30:26.472Z</time></trkpt><trkpt lat="43.4328708" lon="0.5876347"><ele>201.0</ele><time>2026-04-23T09:30:29.472Z</time></trkpt><trkpt lat="43.4328769" lon="0.5877517"><ele>200.66666666666666</ele><time>2026-04-23T09:30:32.473Z</time></trkpt><trkpt lat="43.4328867" lon="0.5878802"><ele>200.33333333333331</ele><time>2026-04-23T09:30:35.472Z</time></trkpt><trkpt lat="43.4328937" lon="0.5879668"><ele>200.0</ele><time>2026-04-23T09:30:37.472Z</time></trkpt><trkpt lat="43.4328952" lon="0.588054"><ele>199.66666666666666</ele><time>2026-04-23T09:30:39.472Z</time></trkpt><trkpt lat="43.4329028" lon="0.5881818"><ele>199.33333333333331</ele><time>2026-04-23T09:30:42.472Z</time></trkpt><trkpt lat="43.432915" lon="0.5883008"><ele>199.0</ele><time>2026-04-23T09:30:45.472Z</time></trkpt><trkpt lat="43.4329204" lon="0.5883884"><ele>198.99999999999997</ele><time>2026-04-23T09:30:47.472Z</time></trkpt><trkpt lat="43.4329241" lon="0.5884766"><ele>199.0</ele><time>2026-04-23T09:30:49.472Z</time></trkpt><trkpt lat="43.4329291" lon="0.588564"><ele>199.0</ele><time>2026-04-23T09:30:51.472Z</time></trkpt><trkpt lat="43.4329383" lon="0.5886544"><ele>199.0</ele><time>2026-04-23T09:30:53.472Z</time></trkpt><trkpt lat="43.432946" lon="0.5887459"><ele>199.0</ele><time>2026-04-23T09:30:55.473Z</time></trkpt><trkpt lat="43.4329552" lon="0.5888381"><ele>198.99999999999997</ele><time>2026-04-23T09:30:57.472Z</time></trkpt><trkpt lat="43.4329674" lon="0.5889301"><ele>199.0</ele><time>2026-04-23T09:30:59.472Z</time></trkpt><trkpt lat="43.4329868" lon="0.5890222"><ele>199.57142857142856</ele><time>2026-04-23T09:31:01.472Z</time></trkpt><trkpt lat="43.4330169" lon="0.5891093"><ele>200.14285714285714</ele><time>2026-04-23T09:31:03.472Z</time></trkpt><trkpt lat="43.4330568" lon="0.5891921"><ele>200.71428571428572</ele><time>2026-04-23T09:31:05.473Z</time></trkpt><trkpt lat="43.4331023" lon="0.5892717"><ele>201.28571428571428</ele><time>2026-04-23T09:31:07.472Z</time></trkpt><trkpt lat="43.4331531" lon="0.5893452"><ele>201.85714285714286</ele><time>2026-04-23T09:31:09.472Z</time></trkpt><trkpt lat="43.4332063" lon="0.5894166"><ele>202.42857142857142</ele><time>2026-04-23T09:31:11.472Z</time></trkpt><trkpt lat="43.4332602" lon="0.5894846"><ele>203.0</ele><time>2026-04-23T09:31:13.473Z</time></trkpt><trkpt lat="43.4333097" lon="0.5895506"><ele>204.66666666666669</ele><time>2026-04-23T09:31:15.473Z</time></trkpt><trkpt lat="43.4333554" lon="0.5896155"><ele>206.33333333333334</ele><time>2026-04-23T09:31:17.472Z</time></trkpt><trkpt lat="43.433402" lon="0.5896758"><ele>208.0</ele><time>2026-04-23T09:31:19.472Z</time></trkpt><trkpt lat="43.4334796" lon="0.5897499"><ele>209.66666666666669</ele><time>2026-04-23T09:31:22.472Z</time></trkpt><trkpt lat="43.4335643" lon="0.5898062"><ele>211.33333333333334</ele><time>2026-04-23T09:31:25.472Z</time></trkpt><trkpt lat="43.433631" lon="0.5898252"><ele>213.0</ele><time>2026-04-23T09:31:27.473Z</time></trkpt><trkpt lat="43.4337014" lon="0.589828"><ele>212.99999999999997</ele><time>2026-04-23T09:31:29.472Z</time></trkpt><trkpt lat="43.433769" lon="0.5898202"><ele>213.0</ele><time>2026-04-23T09:31:31.473Z</time></trkpt><trkpt lat="43.4338332" lon="0.5898004"><ele>213.0</ele><time>2026-04-23T09:31:33.472Z</time></trkpt><trkpt lat="43.4338946" lon="0.5897697"><ele>213.0</ele><time>2026-04-23T09:31:35.472Z</time></trkpt><trkpt lat="43.4339532" lon="0.5897289"><ele>213.0</ele><time>2026-04-23T09:31:37.472Z</time></trkpt><trkpt lat="43.4340097" lon="0.5896854"><ele>212.99999999999997</ele><time>2026-04-23T09:31:39.472Z</time></trkpt><trkpt lat="43.4340663" lon="0.58964"><ele>213.0</ele><time>2026-04-23T09:31:41.472Z</time></trkpt><trkpt lat="43.4341257" lon="0.5896019"><ele>213.0</ele><time>2026-04-23T09:31:43.472Z</time></trkpt><trkpt lat="43.4342105" lon="0.5895553"><ele>213.0</ele><time>2026-04-23T09:31:46.472Z</time></trkpt><trkpt lat="43.4342873" lon="0.5895055"><ele>213.0</ele><time>2026-04-23T09:31:49.473Z</time></trkpt><trkpt lat="43.4343695" lon="0.5894535"><ele>213.0</ele><time>2026-04-23T09:31:52.472Z</time></trkpt><trkpt lat="43.4344288" lon="0.5894194"><ele>213.0</ele><time>2026-04-23T09:31:54.472Z</time></trkpt><trkpt lat="43.43449" lon="0.5893867"><ele>213.0</ele><time>2026-04-23T09:31:56.472Z</time></trkpt><trkpt lat="43.4345496" lon="0.5893549"><ele>211.83333333333334</ele><time>2026-04-23T09:31:58.472Z</time></trkpt><trkpt lat="43.4346345" lon="0.5893112"><ele>210.66666666666669</ele><time>2026-04-23T09:32:01.472Z</time></trkpt><trkpt lat="43.4347128" lon="0.5892692"><ele>209.5</ele><time>2026-04-23T09:32:04.472Z</time></trkpt><trkpt lat="43.4347907" lon="0.589231"><ele>208.33333333333334</ele><time>2026-04-23T09:32:07.472Z</time></trkpt><trkpt lat="43.4348717" lon="0.5891831"><ele>207.16666666666669</ele><time>2026-04-23T09:32:10.472Z</time></trkpt><trkpt lat="43.4349611" lon="0.5891398"><ele>206.0</ele><time>2026-04-23T09:32:13.472Z</time></trkpt><trkpt lat="43.4350221" lon="0.5891072"><ele>205.99999999999997</ele><time>2026-04-23T09:32:15.472Z</time></trkpt><trkpt lat="43.4350834" lon="0.5890731"><ele>206.0</ele><time>2026-04-23T09:32:17.472Z</time></trkpt><trkpt lat="43.4351446" lon="0.5890373"><ele>206.0</ele><time>2026-04-23T09:32:19.472Z</time></trkpt><trkpt lat="43.4352078" lon="0.5890032"><ele>206.0</ele><time>2026-04-23T09:32:21.472Z</time></trkpt><trkpt lat="43.4352709" lon="0.5889686"><ele>206.0</ele><time>2026-04-23T09:32:23.472Z</time></trkpt><trkpt lat="43.4353352" lon="0.5889214"><ele>205.99999999999997</ele><time>2026-04-23T09:32:25.472Z</time></trkpt><trkpt lat="43.4354014" lon="0.5888738"><ele>206.0</ele><time>2026-04-23T09:32:27.472Z</time></trkpt><trkpt lat="43.4354702" lon="0.5888266"><ele>205.16666666666669</ele><time>2026-04-23T09:32:29.472Z</time></trkpt><trkpt lat="43.4355409" lon="0.5887715"><ele>204.33333333333334</ele><time>2026-04-23T09:32:31.472Z</time></trkpt><trkpt lat="43.4356151" lon="0.5887094"><ele>203.5</ele><time>2026-04-23T09:32:33.472Z</time></trkpt><trkpt lat="43.4356924" lon="0.5886491"><ele>202.66666666666669</ele><time>2026-04-23T09:32:35.472Z</time></trkpt><trkpt lat="43.4357787" lon="0.5885884"><ele>201.83333333333334</ele><time>2026-04-23T09:32:37.472Z</time></trkpt><trkpt lat="43.4358605" lon="0.5885245"><ele>201.0</ele><time>2026-04-23T09:32:39.472Z</time></trkpt><trkpt lat="43.4359485" lon="0.5884763"><ele>201.0</ele><time>2026-04-23T09:32:41.472Z</time></trkpt><trkpt lat="43.4360335" lon="0.5884448"><ele>201.0</ele><time>2026-04-23T09:32:43.472Z</time></trkpt><trkpt lat="43.4361266" lon="0.5884222"><ele>201.0</ele><time>2026-04-23T09:32:45.472Z</time></trkpt><trkpt lat="43.4362241" lon="0.5884148"><ele>201.0</ele><time>2026-04-23T09:32:47.472Z</time></trkpt><trkpt lat="43.4363232" lon="0.5884138"><ele>201.0</ele><time>2026-04-23T09:32:49.472Z</time></trkpt><trkpt lat="43.4364251" lon="0.5884246"><ele>201.4</ele><time>2026-04-23T09:32:51.472Z</time></trkpt><trkpt lat="43.4365309" lon="0.5884368"><ele>201.8</ele><time>2026-04-23T09:32:53.472Z</time></trkpt><trkpt lat="43.4366357" lon="0.5884515"><ele>202.20000000000002</ele><time>2026-04-23T09:32:55.472Z</time></trkpt><trkpt lat="43.4367313" lon="0.5884664"><ele>202.60000000000002</ele><time>2026-04-23T09:32:57.472Z</time></trkpt><trkpt lat="43.4368324" lon="0.588472"><ele>203.0</ele><time>2026-04-23T09:32:59.472Z</time></trkpt><trkpt lat="43.4369284" lon="0.5884739"><ele>203.0</ele><time>2026-04-23T09:33:01.472Z</time></trkpt><trkpt lat="43.4370226" lon="0.5884675"><ele>203.0</ele><time>2026-04-23T09:33:03.472Z</time></trkpt><trkpt lat="43.4371133" lon="0.5884518"><ele>203.0</ele><time>2026-04-23T09:33:05.472Z</time></trkpt><trkpt lat="43.4372025" lon="0.5884353"><ele>203.0</ele><time>2026-04-23T09:33:07.472Z</time></trkpt><trkpt lat="43.4372924" lon="0.5884168"><ele>203.0</ele><time>2026-04-23T09:33:09.472Z</time></trkpt><trkpt lat="43.4373753" lon="0.5884143"><ele>202.71428571428572</ele><time>2026-04-23T09:33:11.472Z</time></trkpt><trkpt lat="43.4374555" lon="0.5884192"><ele>202.42857142857144</ele><time>2026-04-23T09:33:13.472Z</time></trkpt><trkpt lat="43.4375294" lon="0.588441"><ele>202.14285714285714</ele><time>2026-04-23T09:33:15.472Z</time></trkpt><trkpt lat="43.4376014" lon="0.5884681"><ele>201.85714285714286</ele><time>2026-04-23T09:33:17.473Z</time></trkpt><trkpt lat="43.4376734" lon="0.5884896"><ele>201.57142857142858</ele><time>2026-04-23T09:33:19.472Z</time></trkpt><trkpt lat="43.4377409" lon="0.5885207"><ele>201.28571428571428</ele><time>2026-04-23T09:33:21.472Z</time></trkpt><trkpt lat="43.4378052" lon="0.5885606"><ele>201.0</ele><time>2026-04-23T09:33:23.473Z</time></trkpt><trkpt lat="43.4378664" lon="0.5886071"><ele>201.0</ele><time>2026-04-23T09:33:25.472Z</time></trkpt><trkpt lat="43.4379282" lon="0.588652"><ele>201.0</ele><time>2026-04-23T09:33:27.472Z</time></trkpt><trkpt lat="43.4379881" lon="0.5887039"><ele>201.0</ele><time>2026-04-23T09:33:29.472Z</time></trkpt><trkpt lat="43.438047" lon="0.5887637"><ele>201.0</ele><time>2026-04-23T09:33:31.473Z</time></trkpt><trkpt lat="43.4381028" lon="0.5888296"><ele>201.0</ele><time>2026-04-23T09:33:33.472Z</time></trkpt><trkpt lat="43.4381584" lon="0.588889"><ele>201.0</ele><time>2026-04-23T09:33:35.472Z</time></trkpt><trkpt lat="43.4382124" lon="0.5889473"><ele>201.0</ele><time>2026-04-23T09:33:37.473Z</time></trkpt><trkpt lat="43.4382659" lon="0.5890082"><ele>201.57142857142856</ele><time>2026-04-23T09:33:39.472Z</time></trkpt><trkpt lat="43.4383182" lon="0.5890709"><ele>202.14285714285717</ele><time>2026-04-23T09:33:41.472Z</time></trkpt><trkpt lat="43.4383668" lon="0.5891278"><ele>202.71428571428572</ele><time>2026-04-23T09:33:43.472Z</time></trkpt><trkpt lat="43.4384185" lon="0.5891879"><ele>203.28571428571428</ele><time>2026-04-23T09:33:45.472Z</time></trkpt><trkpt lat="43.4384695" lon="0.5892484"><ele>203.85714285714283</ele><time>2026-04-23T09:33:47.472Z</time></trkpt><trkpt lat="43.4385205" lon="0.5893071"><ele>204.42857142857144</ele><time>2026-04-23T09:33:49.472Z</time></trkpt><trkpt lat="43.4385722" lon="0.5893652"><ele>205.0</ele><time>2026-04-23T09:33:51.472Z</time></trkpt><trkpt lat="43.4386236" lon="0.5894224"><ele>205.0</ele><time>2026-04-23T09:33:53.472Z</time></trkpt><trkpt lat="43.4386971" lon="0.5895014"><ele>205.0</ele><time>2026-04-23T09:33:56.472Z</time></trkpt><trkpt lat="43.4387489" lon="0.5895568"><ele>205.0</ele><time>2026-04-23T09:33:58.473Z</time></trkpt><trkpt lat="43.4388001" lon="0.5896114"><ele>205.0</ele><time>2026-04-23T09:34:00.472Z</time></trkpt><trkpt lat="43.438853" lon="0.5896673"><ele>205.0</ele><time>2026-04-23T09:34:02.472Z</time></trkpt><trkpt lat="43.4389045" lon="0.5897264"><ele>205.0</ele><time>2026-04-23T09:34:04.472Z</time></trkpt><trkpt lat="43.4389568" lon="0.5897845"><ele>205.0</ele><time>2026-04-23T09:34:06.472Z</time></trkpt><trkpt lat="43.4390147" lon="0.5898368"><ele>205.2857142857143</ele><time>2026-04-23T09:34:08.472Z</time></trkpt><trkpt lat="43.4390723" lon="0.5898826"><ele>205.57142857142856</ele><time>2026-04-23T09:34:10.472Z</time></trkpt><trkpt lat="43.439132" lon="0.5899244"><ele>205.85714285714286</ele><time>2026-04-23T09:34:12.472Z</time></trkpt><trkpt lat="43.439191" lon="0.5899657"><ele>206.14285714285717</ele><time>2026-04-23T09:34:14.472Z</time></trkpt><trkpt lat="43.4392509" lon="0.590002"><ele>206.42857142857144</ele><time>2026-04-23T09:34:16.472Z</time></trkpt><trkpt lat="43.4393113" lon="0.5900383"><ele>206.71428571428572</ele><time>2026-04-23T09:34:18.472Z</time></trkpt><trkpt lat="43.4393734" lon="0.5900744"><ele>207.0</ele><time>2026-04-23T09:34:20.472Z</time></trkpt><trkpt lat="43.4394355" lon="0.590111"><ele>207.00000000000003</ele><time>2026-04-23T09:34:22.472Z</time></trkpt><trkpt lat="43.439497" lon="0.5901496"><ele>207.0</ele><time>2026-04-23T09:34:24.473Z</time></trkpt><trkpt lat="43.4395571" lon="0.5901914"><ele>207.0</ele><time>2026-04-23T09:34:26.472Z</time></trkpt><trkpt lat="43.4396178" lon="0.5902317"><ele>207.0</ele><time>2026-04-23T09:34:28.472Z</time></trkpt><trkpt lat="43.4396828" lon="0.5902733"><ele>207.0</ele><time>2026-04-23T09:34:30.472Z</time></trkpt><trkpt lat="43.4397484" lon="0.5903167"><ele>207.00000000000003</ele><time>2026-04-23T09:34:32.472Z</time></trkpt><trkpt lat="43.4398125" lon="0.5903608"><ele>207.0</ele><time>2026-04-23T09:34:34.472Z</time></trkpt><trkpt lat="43.439876" lon="0.5904028"><ele>207.85714285714286</ele><time>2026-04-23T09:34:36.472Z</time></trkpt><trkpt lat="43.4399397" lon="0.5904451"><ele>208.71428571428572</ele><time>2026-04-23T09:34:38.472Z</time></trkpt><trkpt lat="43.4399972" lon="0.5904949"><ele>209.57142857142856</ele><time>2026-04-23T09:34:40.472Z</time></trkpt><trkpt lat="43.4400558" lon="0.5905595"><ele>210.42857142857144</ele><time>2026-04-23T09:34:42.472Z</time></trkpt><trkpt lat="43.4401092" lon="0.5906314"><ele>211.28571428571428</ele><time>2026-04-23T09:34:44.472Z</time></trkpt><trkpt lat="43.4401518" lon="0.5907068"><ele>212.14285714285714</ele><time>2026-04-23T09:34:46.472Z</time></trkpt><trkpt lat="43.4402017" lon="0.590809"><ele>213.0</ele><time>2026-04-23T09:34:49.472Z</time></trkpt><trkpt lat="43.4402414" lon="0.5909079"><ele>213.0</ele><time>2026-04-23T09:34:52.473Z</time></trkpt><trkpt lat="43.4402826" lon="0.5910051"><ele>213.0</ele><time>2026-04-23T09:34:55.472Z</time></trkpt><trkpt lat="43.4403178" lon="0.591101"><ele>213.0</ele><time>2026-04-23T09:34:58.472Z</time></trkpt><trkpt lat="43.4403541" lon="0.5911976"><ele>213.0</ele><time>2026-04-23T09:35:01.472Z</time></trkpt><trkpt lat="43.4403888" lon="0.5912894"><ele>213.0</ele><time>2026-04-23T09:35:04.472Z</time></trkpt><trkpt lat="43.4404268" lon="0.5913814"><ele>213.0</ele><time>2026-04-23T09:35:07.472Z</time></trkpt><trkpt lat="43.4404713" lon="0.5914805"><ele>212.5</ele><time>2026-04-23T09:35:10.472Z</time></trkpt><trkpt lat="43.4405228" lon="0.5915875"><ele>212.0</ele><time>2026-04-23T09:35:13.473Z</time></trkpt><trkpt lat="43.4405648" lon="0.5916541"><ele>211.5</ele><time>2026-04-23T09:35:15.472Z</time></trkpt><trkpt lat="43.440613" lon="0.5917109"><ele>211.0</ele><time>2026-04-23T09:35:17.473Z</time></trkpt><trkpt lat="43.4406709" lon="0.5917538"><ele>210.5</ele><time>2026-04-23T09:35:19.472Z</time></trkpt><trkpt lat="43.4407552" lon="0.5917988"><ele>210.0</ele><time>2026-04-23T09:35:22.472Z</time></trkpt><trkpt lat="43.440844" lon="0.5918272"><ele>210.0</ele><time>2026-04-23T09:35:25.472Z</time></trkpt><trkpt lat="43.440935" lon="0.5918368"><ele>210.0</ele><time>2026-04-23T09:35:28.472Z</time></trkpt><trkpt lat="43.4410245" lon="0.5918329"><ele>210.0</ele><time>2026-04-23T09:35:31.472Z</time></trkpt><trkpt lat="43.4411098" lon="0.5918276"><ele>210.0</ele><time>2026-04-23T09:35:34.472Z</time></trkpt><trkpt lat="43.4411957" lon="0.5918347"><ele>210.0</ele><time>2026-04-23T09:35:37.472Z</time></trkpt><trkpt lat="43.4412822" lon="0.591852"><ele>210.0</ele><time>2026-04-23T09:35:40.472Z</time></trkpt><trkpt lat="43.4413503" lon="0.5919145"><ele>211.5</ele><time>2026-04-23T09:35:43.472Z</time></trkpt><trkpt lat="43.4413936" lon="0.5920086"><ele>213.0</ele><time>2026-04-23T09:35:46.473Z</time></trkpt><trkpt lat="43.4414146" lon="0.5921187"><ele>214.5</ele><time>2026-04-23T09:35:49.472Z</time></trkpt><trkpt lat="43.4414392" lon="0.5922257"><ele>216.0</ele><time>2026-04-23T09:35:52.473Z</time></trkpt><trkpt lat="43.4414661" lon="0.5923274"><ele>217.5</ele><time>2026-04-23T09:35:55.472Z</time></trkpt><trkpt lat="43.4414883" lon="0.5924325"><ele>219.0</ele><time>2026-04-23T09:35:58.472Z</time></trkpt><trkpt lat="43.4414995" lon="0.592545"><ele>219.0</ele><time>2026-04-23T09:36:01.473Z</time></trkpt><trkpt lat="43.441505" lon="0.5926562"><ele>219.0</ele><time>2026-04-23T09:36:04.473Z</time></trkpt><trkpt lat="43.4415037" lon="0.5927533"><ele>219.0</ele><time>2026-04-23T09:36:07.472Z</time></trkpt><trkpt lat="43.4415082" lon="0.5928616"><ele>219.0</ele><time>2026-04-23T09:36:10.472Z</time></trkpt><trkpt lat="43.4415177" lon="0.5929631"><ele>219.0</ele><time>2026-04-23T09:36:13.472Z</time></trkpt><trkpt lat="43.4415207" lon="0.5930657"><ele>219.0</ele><time>2026-04-23T09:36:16.472Z</time></trkpt><trkpt lat="43.4415234" lon="0.5931719"><ele>219.66666666666666</ele><time>2026-04-23T09:36:19.472Z</time></trkpt><trkpt lat="43.4415305" lon="0.5932734"><ele>220.33333333333331</ele><time>2026-04-23T09:36:22.472Z</time></trkpt><trkpt lat="43.4415336" lon="0.5933769"><ele>221.0</ele><time>2026-04-23T09:36:25.472Z</time></trkpt><trkpt lat="43.4415513" lon="0.5934842"><ele>221.66666666666666</ele><time>2026-04-23T09:36:28.472Z</time></trkpt><trkpt lat="43.4415677" lon="0.5935924"><ele>222.33333333333331</ele><time>2026-04-23T09:36:31.472Z</time></trkpt><trkpt lat="43.4415716" lon="0.5937064"><ele>223.0</ele><time>2026-04-23T09:36:34.472Z</time></trkpt><trkpt lat="43.4415838" lon="0.5938256"><ele>223.33333333333331</ele><time>2026-04-23T09:36:37.472Z</time></trkpt><trkpt lat="43.4415935" lon="0.5939492"><ele>223.66666666666666</ele><time>2026-04-23T09:36:40.472Z</time></trkpt><trkpt lat="43.4415987" lon="0.5940687"><ele>224.0</ele><time>2026-04-23T09:36:43.473Z</time></trkpt><trkpt lat="43.4416019" lon="0.5941907"><ele>224.33333333333331</ele><time>2026-04-23T09:36:46.472Z</time></trkpt><trkpt lat="43.4416013" lon="0.594311"><ele>224.66666666666666</ele><time>2026-04-23T09:36:49.472Z</time></trkpt><trkpt lat="43.4416032" lon="0.5944292"><ele>225.0</ele><time>2026-04-23T09:36:52.472Z</time></trkpt><trkpt lat="43.4416032" lon="0.594551"><ele>225.33333333333334</ele><time>2026-04-23T09:36:55.472Z</time></trkpt><trkpt lat="43.4415941" lon="0.5946725"><ele>225.66666666666669</ele><time>2026-04-23T09:36:58.472Z</time></trkpt><trkpt lat="43.4415879" lon="0.5947925"><ele>226.0</ele><time>2026-04-23T09:37:01.472Z</time></trkpt><trkpt lat="43.4415717" lon="0.5949426"><ele>226.33333333333334</ele><time>2026-04-23T09:37:05.472Z</time></trkpt><trkpt lat="43.4415638" lon="0.5950519"><ele>226.66666666666669</ele><time>2026-04-23T09:37:08.472Z</time></trkpt><trkpt lat="43.4415484" lon="0.5951621"><ele>227.0</ele><time>2026-04-23T09:37:11.473Z</time></trkpt><trkpt lat="43.4415352" lon="0.5952663"><ele>227.66666666666669</ele><time>2026-04-23T09:37:14.472Z</time></trkpt><trkpt lat="43.4415283" lon="0.5953672"><ele>228.33333333333334</ele><time>2026-04-23T09:37:17.472Z</time></trkpt><trkpt lat="43.4415184" lon="0.5954774"><ele>229.0</ele><time>2026-04-23T09:37:20.472Z</time></trkpt><trkpt lat="43.4415099" lon="0.5955906"><ele>229.66666666666669</ele><time>2026-04-23T09:37:23.473Z</time></trkpt><trkpt lat="43.4415087" lon="0.5956834"><ele>230.33333333333334</ele><time>2026-04-23T09:37:26.472Z</time></trkpt><trkpt lat="43.4415051" lon="0.5958061"><ele>231.0</ele><time>2026-04-23T09:37:29.472Z</time></trkpt><trkpt lat="43.441498" lon="0.59593"><ele>231.0</ele><time>2026-04-23T09:37:32.472Z</time></trkpt><trkpt lat="43.441486" lon="0.5960548"><ele>231.00000000000003</ele><time>2026-04-23T09:37:35.472Z</time></trkpt><trkpt lat="43.4414754" lon="0.5961719"><ele>231.00000000000003</ele><time>2026-04-23T09:37:38.472Z</time></trkpt><trkpt lat="43.4414587" lon="0.5962953"><ele>231.0</ele><time>2026-04-23T09:37:41.472Z</time></trkpt><trkpt lat="43.4414349" lon="0.5964179"><ele>231.0</ele><time>2026-04-23T09:37:44.472Z</time></trkpt><trkpt lat="43.4414113" lon="0.5965409"><ele>230.57142857142856</ele><time>2026-04-23T09:37:47.473Z</time></trkpt><trkpt lat="43.4413896" lon="0.5966246"><ele>230.14285714285714</ele><time>2026-04-23T09:37:49.472Z</time></trkpt><trkpt lat="43.4413694" lon="0.5967078"><ele>229.71428571428572</ele><time>2026-04-23T09:37:51.472Z</time></trkpt><trkpt lat="43.4413499" lon="0.5967907"><ele>229.28571428571428</ele><time>2026-04-23T09:37:53.472Z</time></trkpt><trkpt lat="43.4413259" lon="0.5968738"><ele>228.85714285714283</ele><time>2026-04-23T09:37:55.473Z</time></trkpt><trkpt lat="43.4413019" lon="0.5969546"><ele>228.42857142857142</ele><time>2026-04-23T09:37:57.472Z</time></trkpt><trkpt lat="43.4412771" lon="0.5970346"><ele>228.0</ele><time>2026-04-23T09:37:59.472Z</time></trkpt><trkpt lat="43.4412392" lon="0.597146"><ele>228.0</ele><time>2026-04-23T09:38:02.472Z</time></trkpt><trkpt lat="43.4412057" lon="0.5972581"><ele>228.0</ele><time>2026-04-23T09:38:05.472Z</time></trkpt><trkpt lat="43.4411813" lon="0.5973388"><ele>228.0</ele><time>2026-04-23T09:38:07.472Z</time></trkpt><trkpt lat="43.4411368" lon="0.5974522"><ele>228.0</ele><time>2026-04-23T09:38:10.472Z</time></trkpt><trkpt lat="43.4410942" lon="0.5975622"><ele>228.0</ele><time>2026-04-23T09:38:13.473Z</time></trkpt><trkpt lat="43.4410647" lon="0.5976425"><ele>228.0</ele><time>2026-04-23T09:38:15.472Z</time></trkpt><trkpt lat="43.4410414" lon="0.5977279"><ele>228.0</ele><time>2026-04-23T09:38:17.472Z</time></trkpt><trkpt lat="43.4410301" lon="0.5978277"><ele>228.0</ele><time>2026-04-23T09:38:20.472Z</time></trkpt><trkpt lat="43.4410369" lon="0.5979267"><ele>228.0</ele><time>2026-04-23T09:38:23.472Z</time></trkpt><trkpt lat="43.4410622" lon="0.5980414"><ele>228.0</ele><time>2026-04-23T09:38:26.472Z</time></trkpt><trkpt lat="43.4410974" lon="0.5981468"><ele>228.0</ele><time>2026-04-23T09:38:29.472Z</time></trkpt><trkpt lat="43.4411426" lon="0.5982471"><ele>228.0</ele><time>2026-04-23T09:38:32.472Z</time></trkpt><trkpt lat="43.4411857" lon="0.5983462"><ele>228.5</ele><time>2026-04-23T09:38:35.472Z</time></trkpt><trkpt lat="43.4412311" lon="0.5984429"><ele>229.0</ele><time>2026-04-23T09:38:38.473Z</time></trkpt><trkpt lat="43.4412709" lon="0.5985429"><ele>229.5</ele><time>2026-04-23T09:38:41.472Z</time></trkpt><trkpt lat="43.4413094" lon="0.598641"><ele>230.0</ele><time>2026-04-23T09:38:44.472Z</time></trkpt><trkpt lat="43.4413519" lon="0.5987383"><ele>230.5</ele><time>2026-04-23T09:38:47.472Z</time></trkpt><trkpt lat="43.4413826" lon="0.5988432"><ele>231.0</ele><time>2026-04-23T09:38:50.472Z</time></trkpt><trkpt lat="43.4414067" lon="0.5989505"><ele>233.33333333333334</ele><time>2026-04-23T09:38:53.472Z</time></trkpt><trkpt lat="43.4414274" lon="0.5990598"><ele>235.66666666666669</ele><time>2026-04-23T09:38:56.472Z</time></trkpt><trkpt lat="43.4414443" lon="0.5991667"><ele>238.0</ele><time>2026-04-23T09:38:59.472Z</time></trkpt><trkpt lat="43.4414564" lon="0.5992711"><ele>240.33333333333334</ele><time>2026-04-23T09:39:02.472Z</time></trkpt><trkpt lat="43.4414684" lon="0.5993651"><ele>242.66666666666669</ele><time>2026-04-23T09:39:05.472Z</time></trkpt><trkpt lat="43.441471" lon="0.5994574"><ele>245.0</ele><time>2026-04-23T09:39:08.472Z</time></trkpt><trkpt lat="43.4414787" lon="0.5995609"><ele>245.57142857142856</ele><time>2026-04-23T09:39:11.472Z</time></trkpt><trkpt lat="43.441485" lon="0.5996636"><ele>246.14285714285714</ele><time>2026-04-23T09:39:14.472Z</time></trkpt><trkpt lat="43.4414929" lon="0.5997597"><ele>246.71428571428572</ele><time>2026-04-23T09:39:17.473Z</time></trkpt><trkpt lat="43.4414833" lon="0.5998564"><ele>247.28571428571428</ele><time>2026-04-23T09:39:20.472Z</time></trkpt><trkpt lat="43.4414878" lon="0.5999846"><ele>247.85714285714283</ele><time>2026-04-23T09:39:24.472Z</time></trkpt><trkpt lat="43.4414743" lon="0.6000753"><ele>248.42857142857142</ele><time>2026-04-23T09:39:27.472Z</time></trkpt><trkpt lat="43.4414674" lon="0.6001679"><ele>249.0</ele><time>2026-04-23T09:39:30.473Z</time></trkpt><trkpt lat="43.4414627" lon="0.6002638"><ele>250.85714285714283</ele><time>2026-04-23T09:39:33.472Z</time></trkpt><trkpt lat="43.4414599" lon="0.6003595"><ele>252.7142857142857</ele><time>2026-04-23T09:39:36.472Z</time></trkpt><trkpt lat="43.4414525" lon="0.6004589"><ele>254.57142857142856</ele><time>2026-04-23T09:39:39.473Z</time></trkpt><trkpt lat="43.4414497" lon="0.6005576"><ele>256.42857142857144</ele><time>2026-04-23T09:39:42.472Z</time></trkpt><trkpt lat="43.4414361" lon="0.6006482"><ele>258.28571428571433</ele><time>2026-04-23T09:39:45.472Z</time></trkpt><trkpt lat="43.4414377" lon="0.6007382"><ele>260.14285714285717</ele><time>2026-04-23T09:39:48.472Z</time></trkpt><trkpt lat="43.4414434" lon="0.6008307"><ele>262.0</ele><time>2026-04-23T09:39:51.472Z</time></trkpt><trkpt lat="43.4414365" lon="0.6009191"><ele>262.0</ele><time>2026-04-23T09:39:54.472Z</time></trkpt><trkpt lat="43.4414262" lon="0.6010314"><ele>262.0</ele><time>2026-04-23T09:39:58.472Z</time></trkpt><trkpt lat="43.4414239" lon="0.6011399"><ele>262.0</ele><time>2026-04-23T09:40:02.472Z</time></trkpt><trkpt lat="43.4414229" lon="0.6012537"><ele>262.0</ele><time>2026-04-23T09:40:06.472Z</time></trkpt><trkpt lat="43.4414232" lon="0.6013633"><ele>262.0</ele><time>2026-04-23T09:40:10.472Z</time></trkpt><trkpt lat="43.4414165" lon="0.601459"><ele>262.0</ele><time>2026-04-23T09:40:13.472Z</time></trkpt><trkpt lat="43.4414069" lon="0.6015508"><ele>263.16666666666663</ele><time>2026-04-23T09:40:16.472Z</time></trkpt><trkpt lat="43.4414003" lon="0.601649"><ele>264.3333333333333</ele><time>2026-04-23T09:40:19.472Z</time></trkpt><trkpt lat="43.4414012" lon="0.6017516"><ele>265.5</ele><time>2026-04-23T09:40:23.472Z</time></trkpt><trkpt lat="43.4413843" lon="0.6018353"><ele>266.6666666666667</ele><time>2026-04-23T09:40:27.473Z</time></trkpt><trkpt lat="43.4413684" lon="0.6019466"><ele>267.83333333333337</ele><time>2026-04-23T09:40:31.472Z</time></trkpt><trkpt lat="43.4413388" lon="0.6020638"><ele>269.0</ele><time>2026-04-23T09:40:35.473Z</time></trkpt><trkpt lat="43.4412913" lon="0.6021538"><ele>269.0</ele><time>2026-04-23T09:40:38.473Z</time></trkpt><trkpt lat="43.4412042" lon="0.6021822"><ele>269.0</ele><time>2026-04-23T09:40:41.472Z</time></trkpt><trkpt lat="43.4411126" lon="0.6021558"><ele>269.0</ele><time>2026-04-23T09:40:44.472Z</time></trkpt><trkpt lat="43.4410335" lon="0.6020981"><ele>269.0</ele><time>2026-04-23T09:40:47.473Z</time></trkpt><trkpt lat="43.4409789" lon="0.6020125"><ele>269.0</ele><time>2026-04-23T09:40:50.472Z</time></trkpt><trkpt lat="43.4409301" lon="0.6019391"><ele>269.0</ele><time>2026-04-23T09:40:53.472Z</time></trkpt><trkpt lat="43.4408925" lon="0.6018361"><ele>267.33333333333337</ele><time>2026-04-23T09:40:56.473Z</time></trkpt><trkpt lat="43.4408621" lon="0.6017315"><ele>265.6666666666667</ele><time>2026-04-23T09:40:59.472Z</time></trkpt><trkpt lat="43.440834" lon="0.601641"><ele>264.0</ele><time>2026-04-23T09:41:02.472Z</time></trkpt><trkpt lat="43.4408093" lon="0.6015357"><ele>262.3333333333333</ele><time>2026-04-23T09:41:05.472Z</time></trkpt><trkpt lat="43.4407876" lon="0.6014297"><ele>260.66666666666663</ele><time>2026-04-23T09:41:08.472Z</time></trkpt><trkpt lat="43.440765" lon="0.6013259"><ele>259.0</ele><time>2026-04-23T09:41:11.472Z</time></trkpt><trkpt lat="43.4407396" lon="0.6012236"><ele>259.0</ele><time>2026-04-23T09:41:14.472Z</time></trkpt><trkpt lat="43.4407075" lon="0.6011224"><ele>259.0</ele><time>2026-04-23T09:41:17.472Z</time></trkpt><trkpt lat="43.440654" lon="0.6010482"><ele>259.0</ele><time>2026-04-23T09:41:20.472Z</time></trkpt><trkpt lat="43.4405866" lon="0.6010671"><ele>259.0</ele><time>2026-04-23T09:41:23.473Z</time></trkpt><trkpt lat="43.4405633" lon="0.6011563"><ele>259.0</ele><time>2026-04-23T09:41:26.472Z</time></trkpt><trkpt lat="43.4405757" lon="0.601245"><ele>259.0</ele><time>2026-04-23T09:41:29.472Z</time></trkpt><trkpt lat="43.4405805" lon="0.6013341"><ele>259.0</ele><time>2026-04-23T09:41:32.472Z</time></trkpt><trkpt lat="43.4405815" lon="0.6014258"><ele>259.0</ele><time>2026-04-23T09:41:35.472Z</time></trkpt><trkpt lat="43.4405778" lon="0.6015392"><ele>259.0</ele><time>2026-04-23T09:41:39.472Z</time></trkpt><trkpt lat="43.4405664" lon="0.6016375"><ele>259.0</ele><time>2026-04-23T09:41:42.472Z</time></trkpt><trkpt lat="43.4405596" lon="0.6017376"><ele>259.0</ele><time>2026-04-23T09:41:45.472Z</time></trkpt><trkpt lat="43.4405597" lon="0.6018414"><ele>259.0</ele><time>2026-04-23T09:41:48.472Z</time></trkpt><trkpt lat="43.4405503" lon="0.6019425"><ele>259.0</ele><time>2026-04-23T09:41:51.472Z</time></trkpt><trkpt lat="43.4405475" lon="0.6020348"><ele>259.0</ele><time>2026-04-23T09:41:54.472Z</time></trkpt><trkpt lat="43.4405442" lon="0.60213"><ele>260.42857142857144</ele><time>2026-04-23T09:41:57.472Z</time></trkpt><trkpt lat="43.4405379" lon="0.6022338"><ele>261.8571428571429</ele><time>2026-04-23T09:42:00.472Z</time></trkpt><trkpt lat="43.4405386" lon="0.6023347"><ele>263.2857142857143</ele><time>2026-04-23T09:42:03.472Z</time></trkpt><trkpt lat="43.4405397" lon="0.6024299"><ele>264.7142857142857</ele><time>2026-04-23T09:42:06.472Z</time></trkpt><trkpt lat="43.4405471" lon="0.6025245"><ele>266.14285714285717</ele><time>2026-04-23T09:42:09.473Z</time></trkpt><trkpt lat="43.4405485" lon="0.6026163"><ele>267.57142857142856</ele><time>2026-04-23T09:42:12.472Z</time></trkpt><trkpt lat="43.44056" lon="0.6027044"><ele>269.0</ele><time>2026-04-23T09:42:15.472Z</time></trkpt><trkpt lat="43.4405757" lon="0.6027939"><ele>270.8571428571429</ele><time>2026-04-23T09:42:18.473Z</time></trkpt><trkpt lat="43.4405914" lon="0.6028858"><ele>272.7142857142857</ele><time>2026-04-23T09:42:21.473Z</time></trkpt><trkpt lat="43.4406069" lon="0.6029915"><ele>274.57142857142856</ele><time>2026-04-23T09:42:25.472Z</time></trkpt><trkpt lat="43.4406169" lon="0.603086"><ele>276.42857142857144</ele><time>2026-04-23T09:42:28.472Z</time></trkpt><trkpt lat="43.440624" lon="0.6031726"><ele>278.2857142857143</ele><time>2026-04-23T09:42:31.472Z</time></trkpt><trkpt lat="43.4406413" lon="0.6032689"><ele>280.14285714285717</ele><time>2026-04-23T09:42:34.472Z</time></trkpt><trkpt lat="43.440662" lon="0.6033808"><ele>282.0</ele><time>2026-04-23T09:42:38.473Z</time></trkpt><trkpt lat="43.4406955" lon="0.603485"><ele>282.0</ele><time>2026-04-23T09:42:42.473Z</time></trkpt><trkpt lat="43.4407476" lon="0.603546"><ele>282.0</ele><time>2026-04-23T09:42:45.472Z</time></trkpt><trkpt lat="43.4408097" lon="0.6035953"><ele>282.0</ele><time>2026-04-23T09:42:49.472Z</time></trkpt><trkpt lat="43.4408713" lon="0.6036333"><ele>282.0</ele><time>2026-04-23T09:42:53.472Z</time></trkpt><trkpt lat="43.4409429" lon="0.6036143"><ele>282.0</ele><time>2026-04-23T09:42:58.472Z</time></trkpt><trkpt lat="43.4410119" lon="0.6036079"><ele>282.0</ele><time>2026-04-23T09:43:02.472Z</time></trkpt><trkpt lat="43.4410873" lon="0.6035976"><ele>282.0</ele><time>2026-04-23T09:43:07.472Z</time></trkpt><trkpt lat="43.4411498" lon="0.6036145"><ele>282.0</ele><time>2026-04-23T09:43:11.472Z</time></trkpt><trkpt lat="43.4412275" lon="0.60364"><ele>282.0</ele><time>2026-04-23T09:43:16.472Z</time></trkpt><trkpt lat="43.4412855" lon="0.6036921"><ele>282.0</ele><time>2026-04-23T09:43:20.472Z</time></trkpt><trkpt lat="43.4413445" lon="0.6037766"><ele>282.0</ele><time>2026-04-23T09:43:24.473Z</time></trkpt><trkpt lat="43.4413824" lon="0.6038779"><ele>282.0</ele><time>2026-04-23T09:43:28.472Z</time></trkpt><trkpt lat="43.4414004" lon="0.6039813"><ele>282.0</ele><time>2026-04-23T09:43:32.472Z</time></trkpt><trkpt lat="43.4414257" lon="0.6040851"><ele>283.7142857142857</ele><time>2026-04-23T09:43:36.472Z</time></trkpt><trkpt lat="43.4414284" lon="0.6041844"><ele>285.42857142857144</ele><time>2026-04-23T09:43:40.472Z</time></trkpt><trkpt lat="43.4414352" lon="0.6042759"><ele>287.1428571428571</ele><time>2026-04-23T09:43:43.472Z</time></trkpt><trkpt lat="43.441457" lon="0.604386"><ele>288.8571428571429</ele><time>2026-04-23T09:43:47.472Z</time></trkpt><trkpt lat="43.4414713" lon="0.6044865"><ele>290.57142857142856</ele><time>2026-04-23T09:43:50.472Z</time></trkpt><trkpt lat="43.441489" lon="0.6045702"><ele>292.2857142857143</ele><time>2026-04-23T09:43:53.472Z</time></trkpt><trkpt lat="43.4415204" lon="0.6046787"><ele>294.0</ele><time>2026-04-23T09:43:57.472Z</time></trkpt><trkpt lat="43.4415486" lon="0.6047702"><ele>294.42857142857144</ele><time>2026-04-23T09:44:00.472Z</time></trkpt><trkpt lat="43.4415814" lon="0.6048731"><ele>294.8571428571429</ele><time>2026-04-23T09:44:04.472Z</time></trkpt><trkpt lat="43.4416047" lon="0.6049688"><ele>295.2857142857143</ele><time>2026-04-23T09:44:08.472Z</time></trkpt><trkpt lat="43.4416266" lon="0.6050591"><ele>295.7142857142857</ele><time>2026-04-23T09:44:12.472Z</time></trkpt><trkpt lat="43.4415901" lon="0.6051426"><ele>296.14285714285717</ele><time>2026-04-23T09:44:16.473Z</time></trkpt><trkpt lat="43.4415219" lon="0.6051701"><ele>296.57142857142856</ele><time>2026-04-23T09:44:19.472Z</time></trkpt><trkpt lat="43.4414501" lon="0.6052099"><ele>297.0</ele><time>2026-04-23T09:44:22.472Z</time></trkpt><trkpt lat="43.441402" lon="0.6052741"><ele>297.0</ele><time>2026-04-23T09:44:25.472Z</time></trkpt><trkpt lat="43.4413533" lon="0.6053356"><ele>297.0</ele><time>2026-04-23T09:44:28.473Z</time></trkpt><trkpt lat="43.4413012" lon="0.6053952"><ele>297.0</ele><time>2026-04-23T09:44:31.472Z</time></trkpt><trkpt lat="43.4412618" lon="0.6054705"><ele>297.0</ele><time>2026-04-23T09:44:34.472Z</time></trkpt><trkpt lat="43.4412278" lon="0.605552"><ele>297.0</ele><time>2026-04-23T09:44:37.472Z</time></trkpt><trkpt lat="43.4411943" lon="0.6056295"><ele>297.0</ele><time>2026-04-23T09:44:40.472Z</time></trkpt><trkpt lat="43.4411577" lon="0.605712"><ele>297.0</ele><time>2026-04-23T09:44:43.472Z</time></trkpt><trkpt lat="43.4411267" lon="0.6058005"><ele>296.6666666666667</ele><time>2026-04-23T09:44:46.473Z</time></trkpt><trkpt lat="43.4411009" lon="0.6058936"><ele>296.3333333333333</ele><time>2026-04-23T09:44:49.472Z</time></trkpt><trkpt lat="43.44107" lon="0.6059862"><ele>296.0</ele><time>2026-04-23T09:44:52.472Z</time></trkpt><trkpt lat="43.4410355" lon="0.606081"><ele>295.66666666666663</ele><time>2026-04-23T09:44:55.472Z</time></trkpt><trkpt lat="43.4410061" lon="0.60619"><ele>295.3333333333333</ele><time>2026-04-23T09:44:58.472Z</time></trkpt><trkpt lat="43.4409735" lon="0.6063408"><ele>295.0</ele><time>2026-04-23T09:45:02.472Z</time></trkpt><trkpt lat="43.440949" lon="0.6064627"><ele>295.0</ele><time>2026-04-23T09:45:05.473Z</time></trkpt><trkpt lat="43.4409294" lon="0.6065878"><ele>295.0</ele><time>2026-04-23T09:45:08.472Z</time></trkpt><trkpt lat="43.440918" lon="0.6066783"><ele>295.0</ele><time>2026-04-23T09:45:10.472Z</time></trkpt><trkpt lat="43.4409065" lon="0.6067725"><ele>295.0</ele><time>2026-04-23T09:45:12.473Z</time></trkpt><trkpt lat="43.4408933" lon="0.6068695"><ele>295.0</ele><time>2026-04-23T09:45:14.472Z</time></trkpt><trkpt lat="43.4408814" lon="0.606973"><ele>295.0</ele><time>2026-04-23T09:45:16.472Z</time></trkpt><trkpt lat="43.4408669" lon="0.607075"><ele>294.8333333333333</ele><time>2026-04-23T09:45:18.472Z</time></trkpt><trkpt lat="43.4408528" lon="0.6071798"><ele>294.66666666666663</ele><time>2026-04-23T09:45:20.473Z</time></trkpt><trkpt lat="43.4408352" lon="0.6072872"><ele>294.5</ele><time>2026-04-23T09:45:22.472Z</time></trkpt><trkpt lat="43.4408193" lon="0.6073944"><ele>294.3333333333333</ele><time>2026-04-23T09:45:24.472Z</time></trkpt><trkpt lat="43.4408" lon="0.6075056"><ele>294.1666666666667</ele><time>2026-04-23T09:45:26.472Z</time></trkpt><trkpt lat="43.4407746" lon="0.6076244"><ele>294.0</ele><time>2026-04-23T09:45:28.472Z</time></trkpt><trkpt lat="43.4407501" lon="0.6077426"><ele>293.59999999999997</ele><time>2026-04-23T09:45:30.472Z</time></trkpt><trkpt lat="43.4407224" lon="0.6078671"><ele>293.2</ele><time>2026-04-23T09:45:32.472Z</time></trkpt><trkpt lat="43.4406845" lon="0.6079931"><ele>292.79999999999995</ele><time>2026-04-23T09:45:34.472Z</time></trkpt><trkpt lat="43.4406537" lon="0.608131"><ele>292.4</ele><time>2026-04-23T09:45:36.472Z</time></trkpt><trkpt lat="43.4406196" lon="0.6082717"><ele>292.0</ele><time>2026-04-23T09:45:38.472Z</time></trkpt><trkpt lat="43.4405799" lon="0.6084236"><ele>292.0</ele><time>2026-04-23T09:45:40.472Z</time></trkpt><trkpt lat="43.4405297" lon="0.6085717"><ele>292.0</ele><time>2026-04-23T09:45:42.472Z</time></trkpt><trkpt lat="43.4404614" lon="0.6086971"><ele>292.0</ele><time>2026-04-23T09:45:44.472Z</time></trkpt><trkpt lat="43.440365" lon="0.6087778"><ele>292.0</ele><time>2026-04-23T09:45:46.472Z</time></trkpt><trkpt lat="43.4402588" lon="0.6088213"><ele>292.8</ele><time>2026-04-23T09:45:48.472Z</time></trkpt><trkpt lat="43.4401533" lon="0.6088267"><ele>293.6</ele><time>2026-04-23T09:45:50.472Z</time></trkpt><trkpt lat="43.4400503" lon="0.608804"><ele>294.40000000000003</ele><time>2026-04-23T09:45:52.472Z</time></trkpt><trkpt lat="43.4399892" lon="0.6087708"><ele>295.2</ele><time>2026-04-23T09:45:53.472Z</time></trkpt><trkpt lat="43.4398735" lon="0.6087305"><ele>296.0</ele><time>2026-04-23T09:45:55.472Z</time></trkpt><trkpt lat="43.4398079" lon="0.6087081"><ele>294.83333333333337</ele><time>2026-04-23T09:45:56.472Z</time></trkpt><trkpt lat="43.4396865" lon="0.6086495"><ele>293.6666666666667</ele><time>2026-04-23T09:45:58.473Z</time></trkpt><trkpt lat="43.4396232" lon="0.6086143"><ele>292.5</ele><time>2026-04-23T09:45:59.473Z</time></trkpt><trkpt lat="43.4395576" lon="0.6085727"><ele>291.3333333333333</ele><time>2026-04-23T09:46:00.473Z</time></trkpt><trkpt lat="43.4394935" lon="0.6085338"><ele>290.16666666666663</ele><time>2026-04-23T09:46:01.472Z</time></trkpt><trkpt lat="43.4394253" lon="0.6084942"><ele>289.0</ele><time>2026-04-23T09:46:02.472Z</time></trkpt><trkpt lat="43.4393547" lon="0.6084603"><ele>288.8</ele><time>2026-04-23T09:46:03.472Z</time></trkpt><trkpt lat="43.4392879" lon="0.6084197"><ele>288.59999999999997</ele><time>2026-04-23T09:46:04.472Z</time></trkpt><trkpt lat="43.4392229" lon="0.60838"><ele>288.4</ele><time>2026-04-23T09:46:05.472Z</time></trkpt><trkpt lat="43.4391129" lon="0.6083034"><ele>288.2</ele><time>2026-04-23T09:46:07.472Z</time></trkpt><trkpt lat="43.4390534" lon="0.6082712"><ele>288.0</ele><time>2026-04-23T09:46:08.472Z</time></trkpt><trkpt lat="43.4389448" lon="0.6081955"><ele>288.0</ele><time>2026-04-23T09:46:10.472Z</time></trkpt><trkpt lat="43.4388386" lon="0.6081204"><ele>288.0</ele><time>2026-04-23T09:46:12.472Z</time></trkpt><trkpt lat="43.4387411" lon="0.6080479"><ele>288.0</ele><time>2026-04-23T09:46:14.472Z</time></trkpt><trkpt lat="43.438645" lon="0.6079849"><ele>288.0</ele><time>2026-04-23T09:46:16.472Z</time></trkpt><trkpt lat="43.4385468" lon="0.6079191"><ele>288.0</ele><time>2026-04-23T09:46:18.472Z</time></trkpt><trkpt lat="43.4384542" lon="0.6078528"><ele>288.4</ele><time>2026-04-23T09:46:20.472Z</time></trkpt><trkpt lat="43.4383553" lon="0.6077851"><ele>288.8</ele><time>2026-04-23T09:46:22.473Z</time></trkpt><trkpt lat="43.4382661" lon="0.6077194"><ele>289.2</ele><time>2026-04-23T09:46:24.472Z</time></trkpt><trkpt lat="43.4381725" lon="0.6076632"><ele>289.6</ele><time>2026-04-23T09:46:26.473Z</time></trkpt><trkpt lat="43.4380862" lon="0.6076055"><ele>290.0</ele><time>2026-04-23T09:46:28.472Z</time></trkpt><trkpt lat="43.4380049" lon="0.6075392"><ele>289.83333333333337</ele><time>2026-04-23T09:46:30.472Z</time></trkpt><trkpt lat="43.437933" lon="0.6074717"><ele>289.6666666666667</ele><time>2026-04-23T09:46:32.472Z</time></trkpt><trkpt lat="43.4378695" lon="0.6074105"><ele>289.5</ele><time>2026-04-23T09:46:34.472Z</time></trkpt><trkpt lat="43.4378155" lon="0.607341"><ele>289.3333333333333</ele><time>2026-04-23T09:46:36.472Z</time></trkpt><trkpt lat="43.4377639" lon="0.6072793"><ele>289.16666666666663</ele><time>2026-04-23T09:46:38.472Z</time></trkpt><trkpt lat="43.4377148" lon="0.6072217"><ele>289.0</ele><time>2026-04-23T09:46:40.472Z</time></trkpt><trkpt lat="43.4376577" lon="0.6071279"><ele>289.0</ele><time>2026-04-23T09:46:43.472Z</time></trkpt><trkpt lat="43.4375982" lon="0.6070435"><ele>289.0</ele><time>2026-04-23T09:46:46.472Z</time></trkpt><trkpt lat="43.4375553" lon="0.6069793"><ele>289.0</ele><time>2026-04-23T09:46:48.472Z</time></trkpt><trkpt lat="43.4375041" lon="0.6068864"><ele>289.0</ele><time>2026-04-23T09:46:51.472Z</time></trkpt><trkpt lat="43.4374554" lon="0.6068057"><ele>289.0</ele><time>2026-04-23T09:46:54.472Z</time></trkpt><trkpt lat="43.4374073" lon="0.6067342"><ele>289.0</ele><time>2026-04-23T09:46:57.472Z</time></trkpt><trkpt lat="43.4373508" lon="0.6066526"><ele>288.8333333333333</ele><time>2026-04-23T09:47:00.472Z</time></trkpt><trkpt lat="43.4372895" lon="0.6065603"><ele>288.66666666666663</ele><time>2026-04-23T09:47:03.472Z</time></trkpt><trkpt lat="43.4372442" lon="0.6064977"><ele>288.5</ele><time>2026-04-23T09:47:05.472Z</time></trkpt><trkpt lat="43.4371886" lon="0.6064373"><ele>288.3333333333333</ele><time>2026-04-23T09:47:07.472Z</time></trkpt><trkpt lat="43.4371283" lon="0.6063788"><ele>288.1666666666667</ele><time>2026-04-23T09:47:09.472Z</time></trkpt><trkpt lat="43.4370632" lon="0.6063218"><ele>288.0</ele><time>2026-04-23T09:47:11.472Z</time></trkpt><trkpt lat="43.4369936" lon="0.6062652"><ele>288.0</ele><time>2026-04-23T09:47:13.472Z</time></trkpt><trkpt lat="43.4369162" lon="0.6062205"><ele>288.0</ele><time>2026-04-23T09:47:15.472Z</time></trkpt><trkpt lat="43.4368326" lon="0.6061867"><ele>288.0</ele><time>2026-04-23T09:47:17.472Z</time></trkpt><trkpt lat="43.4367426" lon="0.6061662"><ele>288.0</ele><time>2026-04-23T09:47:19.472Z</time></trkpt><trkpt lat="43.4366533" lon="0.6061522"><ele>288.0</ele><time>2026-04-23T09:47:21.473Z</time></trkpt><trkpt lat="43.4365667" lon="0.6061511"><ele>288.0</ele><time>2026-04-23T09:47:23.472Z</time></trkpt><trkpt lat="43.4364783" lon="0.6061612"><ele>288.0</ele><time>2026-04-23T09:47:25.473Z</time></trkpt><trkpt lat="43.4363933" lon="0.6061731"><ele>288.0</ele><time>2026-04-23T09:47:27.472Z</time></trkpt><trkpt lat="43.4363082" lon="0.6061846"><ele>288.0</ele><time>2026-04-23T09:47:29.473Z</time></trkpt><trkpt lat="43.4362262" lon="0.6061982"><ele>288.0</ele><time>2026-04-23T09:47:31.472Z</time></trkpt><trkpt lat="43.4361435" lon="0.6062193"><ele>288.0</ele><time>2026-04-23T09:47:33.472Z</time></trkpt><trkpt lat="43.4360649" lon="0.6062375"><ele>288.0</ele><time>2026-04-23T09:47:35.472Z</time></trkpt><trkpt lat="43.4359862" lon="0.6062538"><ele>288.3333333333333</ele><time>2026-04-23T09:47:37.472Z</time></trkpt><trkpt lat="43.4359044" lon="0.6062725"><ele>288.6666666666667</ele><time>2026-04-23T09:47:39.472Z</time></trkpt><trkpt lat="43.4358254" lon="0.6062949"><ele>289.0</ele><time>2026-04-23T09:47:41.472Z</time></trkpt><trkpt lat="43.4357487" lon="0.6063183"><ele>289.33333333333337</ele><time>2026-04-23T09:47:43.473Z</time></trkpt><trkpt lat="43.4356707" lon="0.6063411"><ele>289.6666666666667</ele><time>2026-04-23T09:47:45.472Z</time></trkpt><trkpt lat="43.4355941" lon="0.6063618"><ele>290.0</ele><time>2026-04-23T09:47:47.472Z</time></trkpt><trkpt lat="43.4355154" lon="0.6063848"><ele>290.33333333333337</ele><time>2026-04-23T09:47:49.472Z</time></trkpt><trkpt lat="43.4354373" lon="0.6064083"><ele>290.6666666666667</ele><time>2026-04-23T09:47:51.472Z</time></trkpt><trkpt lat="43.4353596" lon="0.6064333"><ele>291.0</ele><time>2026-04-23T09:47:53.473Z</time></trkpt><trkpt lat="43.435283" lon="0.6064552"><ele>291.3333333333333</ele><time>2026-04-23T09:47:55.472Z</time></trkpt><trkpt lat="43.4352081" lon="0.6064747"><ele>291.66666666666663</ele><time>2026-04-23T09:47:57.472Z</time></trkpt><trkpt lat="43.4351356" lon="0.6064963"><ele>292.0</ele><time>2026-04-23T09:47:59.472Z</time></trkpt><trkpt lat="43.4350629" lon="0.6065185"><ele>292.0</ele><time>2026-04-23T09:48:01.472Z</time></trkpt><trkpt lat="43.4349924" lon="0.6065383"><ele>292.0</ele><time>2026-04-23T09:48:03.472Z</time></trkpt><trkpt lat="43.4349243" lon="0.6065589"><ele>292.0</ele><time>2026-04-23T09:48:05.472Z</time></trkpt><trkpt lat="43.434857" lon="0.6065777"><ele>292.0</ele><time>2026-04-23T09:48:07.473Z</time></trkpt><trkpt lat="43.4347901" lon="0.6065914"><ele>292.0</ele><time>2026-04-23T09:48:09.472Z</time></trkpt><trkpt lat="43.4347219" lon="0.6066099"><ele>292.0</ele><time>2026-04-23T09:48:11.472Z</time></trkpt><trkpt lat="43.4346516" lon="0.6066299"><ele>292.0</ele><time>2026-04-23T09:48:13.472Z</time></trkpt><trkpt lat="43.4345806" lon="0.6066505"><ele>291.0</ele><time>2026-04-23T09:48:15.472Z</time></trkpt><trkpt lat="43.4345024" lon="0.6066738"><ele>290.0</ele><time>2026-04-23T09:48:17.472Z</time></trkpt><trkpt lat="43.4344198" lon="0.606706"><ele>289.0</ele><time>2026-04-23T09:48:19.472Z</time></trkpt><trkpt lat="43.4343318" lon="0.6067303"><ele>288.0</ele><time>2026-04-23T09:48:21.472Z</time></trkpt><trkpt lat="43.4342365" lon="0.6067582"><ele>287.0</ele><time>2026-04-23T09:48:23.472Z</time></trkpt><trkpt lat="43.4341414" lon="0.6067906"><ele>287.0</ele><time>2026-04-23T09:48:25.473Z</time></trkpt><trkpt lat="43.4340462" lon="0.6067926"><ele>287.0</ele><time>2026-04-23T09:48:27.472Z</time></trkpt><trkpt lat="43.4339539" lon="0.6067932"><ele>287.0</ele><time>2026-04-23T09:48:29.472Z</time></trkpt><trkpt lat="43.4338642" lon="0.6067876"><ele>287.0</ele><time>2026-04-23T09:48:31.472Z</time></trkpt><trkpt lat="43.4337806" lon="0.6067728"><ele>287.0</ele><time>2026-04-23T09:48:33.472Z</time></trkpt><trkpt lat="43.4337004" lon="0.6067474"><ele>287.0</ele><time>2026-04-23T09:48:35.472Z</time></trkpt><trkpt lat="43.4336193" lon="0.6067275"><ele>286.83333333333337</ele><time>2026-04-23T09:48:37.472Z</time></trkpt><trkpt lat="43.4335379" lon="0.6067033"><ele>286.6666666666667</ele><time>2026-04-23T09:48:39.472Z</time></trkpt><trkpt lat="43.4334589" lon="0.6066747"><ele>286.5</ele><time>2026-04-23T09:48:41.472Z</time></trkpt><trkpt lat="43.4333794" lon="0.6066438"><ele>286.3333333333333</ele><time>2026-04-23T09:48:43.472Z</time></trkpt><trkpt lat="43.4333025" lon="0.6066149"><ele>286.16666666666663</ele><time>2026-04-23T09:48:45.472Z</time></trkpt><trkpt lat="43.4332242" lon="0.606586"><ele>286.0</ele><time>2026-04-23T09:48:47.473Z</time></trkpt><trkpt lat="43.4331466" lon="0.6065594"><ele>286.0</ele><time>2026-04-23T09:48:49.472Z</time></trkpt><trkpt lat="43.4330678" lon="0.6065307"><ele>286.0</ele><time>2026-04-23T09:48:51.472Z</time></trkpt><trkpt lat="43.4329843" lon="0.6064977"><ele>286.0</ele><time>2026-04-23T09:48:53.472Z</time></trkpt><trkpt lat="43.4328921" lon="0.6064595"><ele>286.0</ele><time>2026-04-23T09:48:55.472Z</time></trkpt><trkpt lat="43.4327965" lon="0.6064242"><ele>286.0</ele><time>2026-04-23T09:48:57.472Z</time></trkpt><trkpt lat="43.4326533" lon="0.6063602"><ele>286.0</ele><time>2026-04-23T09:49:00.472Z</time></trkpt><trkpt lat="43.4325619" lon="0.6063229"><ele>286.0</ele><time>2026-04-23T09:49:02.472Z</time></trkpt><trkpt lat="43.4324713" lon="0.6062929"><ele>286.0</ele><time>2026-04-23T09:49:04.472Z</time></trkpt><trkpt lat="43.4323842" lon="0.6062583"><ele>286.0</ele><time>2026-04-23T09:49:06.472Z</time></trkpt><trkpt lat="43.4322909" lon="0.6062262"><ele>286.0</ele><time>2026-04-23T09:49:08.472Z</time></trkpt><trkpt lat="43.4322018" lon="0.6061987"><ele>287.0</ele><time>2026-04-23T09:49:10.472Z</time></trkpt><trkpt lat="43.4321178" lon="0.6061663"><ele>288.0</ele><time>2026-04-23T09:49:12.472Z</time></trkpt><trkpt lat="43.4320434" lon="0.6061398"><ele>289.0</ele><time>2026-04-23T09:49:14.472Z</time></trkpt><trkpt lat="43.4319805" lon="0.6061193"><ele>290.0</ele><time>2026-04-23T09:49:16.472Z</time></trkpt><trkpt lat="43.4318951" lon="0.6060933"><ele>291.0</ele><time>2026-04-23T09:49:19.473Z</time></trkpt><trkpt lat="43.4318291" lon="0.6061285"><ele>292.0</ele><time>2026-04-23T09:49:22.472Z</time></trkpt><trkpt lat="43.4317847" lon="0.6062287"><ele>292.0</ele><time>2026-04-23T09:49:25.472Z</time></trkpt><trkpt lat="43.4317651" lon="0.6063504"><ele>292.0</ele><time>2026-04-23T09:49:28.473Z</time></trkpt><trkpt lat="43.4317519" lon="0.6064372"><ele>292.0</ele><time>2026-04-23T09:49:30.472Z</time></trkpt><trkpt lat="43.4317343" lon="0.6065254"><ele>292.0</ele><time>2026-04-23T09:49:32.472Z</time></trkpt><trkpt lat="43.4317164" lon="0.6066162"><ele>292.0</ele><time>2026-04-23T09:49:34.472Z</time></trkpt><trkpt lat="43.4316938" lon="0.6067401"><ele>292.0</ele><time>2026-04-23T09:49:37.472Z</time></trkpt><trkpt lat="43.431677" lon="0.6068275"><ele>292.0</ele><time>2026-04-23T09:49:39.472Z</time></trkpt><trkpt lat="43.4316615" lon="0.6069129"><ele>291.85714285714283</ele><time>2026-04-23T09:49:41.472Z</time></trkpt><trkpt lat="43.4316363" lon="0.6070403"><ele>291.7142857142857</ele><time>2026-04-23T09:49:44.472Z</time></trkpt><trkpt lat="43.4316214" lon="0.6071324"><ele>291.57142857142856</ele><time>2026-04-23T09:49:46.472Z</time></trkpt><trkpt lat="43.4316084" lon="0.6072219"><ele>291.42857142857144</ele><time>2026-04-23T09:49:48.472Z</time></trkpt><trkpt lat="43.4315937" lon="0.6073094"><ele>291.2857142857143</ele><time>2026-04-23T09:49:50.472Z</time></trkpt><trkpt lat="43.4315797" lon="0.6073988"><ele>291.1428571428571</ele><time>2026-04-23T09:49:52.472Z</time></trkpt><trkpt lat="43.431563" lon="0.6074887"><ele>291.0</ele><time>2026-04-23T09:49:54.473Z</time></trkpt><trkpt lat="43.4315357" lon="0.6076123"><ele>291.0</ele><time>2026-04-23T09:49:57.472Z</time></trkpt><trkpt lat="43.4315182" lon="0.607699"><ele>291.0</ele><time>2026-04-23T09:49:59.473Z</time></trkpt><trkpt lat="43.4314989" lon="0.6077873"><ele>291.0</ele><time>2026-04-23T09:50:01.472Z</time></trkpt><trkpt lat="43.4314699" lon="0.6079077"><ele>291.0</ele><time>2026-04-23T09:50:04.472Z</time></trkpt><trkpt lat="43.4314485" lon="0.6079933"><ele>291.0</ele><time>2026-04-23T09:50:06.472Z</time></trkpt><trkpt lat="43.4314269" lon="0.608078"><ele>291.0</ele><time>2026-04-23T09:50:08.472Z</time></trkpt><trkpt lat="43.4313879" lon="0.6081987"><ele>291.1666666666667</ele><time>2026-04-23T09:50:11.472Z</time></trkpt><trkpt lat="43.4313614" lon="0.6082842"><ele>291.3333333333333</ele><time>2026-04-23T09:50:13.473Z</time></trkpt><trkpt lat="43.4313381" lon="0.6083665"><ele>291.5</ele><time>2026-04-23T09:50:15.472Z</time></trkpt><trkpt lat="43.4312999" lon="0.6084856"><ele>291.66666666666663</ele><time>2026-04-23T09:50:18.472Z</time></trkpt><trkpt lat="43.4312737" lon="0.6085709"><ele>291.8333333333333</ele><time>2026-04-23T09:50:20.473Z</time></trkpt><trkpt lat="43.4312497" lon="0.6086518"><ele>292.0</ele><time>2026-04-23T09:50:22.472Z</time></trkpt><trkpt lat="43.431209" lon="0.6087693"><ele>293.0</ele><time>2026-04-23T09:50:25.472Z</time></trkpt><trkpt lat="43.4311484" lon="0.6088487"><ele>294.0</ele><time>2026-04-23T09:50:28.472Z</time></trkpt><trkpt lat="43.431068" lon="0.6088793"><ele>295.0</ele><time>2026-04-23T09:50:32.472Z</time></trkpt><trkpt lat="43.4309851" lon="0.6088896"><ele>296.0</ele><time>2026-04-23T09:50:36.473Z</time></trkpt><trkpt lat="43.4309096" lon="0.6089296"><ele>297.0</ele><time>2026-04-23T09:50:40.473Z</time></trkpt><trkpt lat="43.4308318" lon="0.6089457"><ele>298.0</ele><time>2026-04-23T09:50:44.472Z</time></trkpt><trkpt lat="43.4307539" lon="0.6089653"><ele>298.0</ele><time>2026-04-23T09:50:48.473Z</time></trkpt><trkpt lat="43.4306805" lon="0.6089822"><ele>298.0</ele><time>2026-04-23T09:50:52.473Z</time></trkpt><trkpt lat="43.4306108" lon="0.608997"><ele>298.0</ele><time>2026-04-23T09:50:56.472Z</time></trkpt><trkpt lat="43.4305423" lon="0.6089985"><ele>298.0</ele><time>2026-04-23T09:51:00.472Z</time></trkpt><trkpt lat="43.4304748" lon="0.6090285"><ele>298.0</ele><time>2026-04-23T09:51:05.472Z</time></trkpt><trkpt lat="43.4304048" lon="0.6090639"><ele>298.0</ele><time>2026-04-23T09:51:09.473Z</time></trkpt><trkpt lat="43.4303311" lon="0.6090865"><ele>298.0</ele><time>2026-04-23T09:51:13.472Z</time></trkpt><trkpt lat="43.4302567" lon="0.6090941"><ele>299.16666666666663</ele><time>2026-04-23T09:51:17.472Z</time></trkpt><trkpt lat="43.430179" lon="0.6091057"><ele>300.3333333333333</ele><time>2026-04-23T09:51:21.472Z</time></trkpt><trkpt lat="43.4301027" lon="0.6091302"><ele>301.5</ele><time>2026-04-23T09:51:25.472Z</time></trkpt><trkpt lat="43.4300244" lon="0.6091551"><ele>302.6666666666667</ele><time>2026-04-23T09:51:29.472Z</time></trkpt><trkpt lat="43.4299513" lon="0.6091997"><ele>303.83333333333337</ele><time>2026-04-23T09:51:33.473Z</time></trkpt><trkpt lat="43.4298741" lon="0.6092295"><ele>305.0</ele><time>2026-04-23T09:51:37.472Z</time></trkpt><trkpt lat="43.4297972" lon="0.6092694"><ele>305.0</ele><time>2026-04-23T09:51:41.472Z</time></trkpt><trkpt lat="43.4297254" lon="0.6093212"><ele>305.0</ele><time>2026-04-23T09:51:45.472Z</time></trkpt><trkpt lat="43.4296674" lon="0.6093573"><ele>305.0</ele><time>2026-04-23T09:51:48.472Z</time></trkpt><trkpt lat="43.4296074" lon="0.6093944"><ele>305.0</ele><time>2026-04-23T09:51:51.472Z</time></trkpt><trkpt lat="43.4295494" lon="0.6094381"><ele>305.0</ele><time>2026-04-23T09:51:54.473Z</time></trkpt><trkpt lat="43.429487" lon="0.6094803"><ele>305.0</ele><time>2026-04-23T09:51:57.472Z</time></trkpt><trkpt lat="43.4294261" lon="0.609505"><ele>305.0</ele><time>2026-04-23T09:52:00.473Z</time></trkpt><trkpt lat="43.4293616" lon="0.6095286"><ele>304.83333333333337</ele><time>2026-04-23T09:52:03.472Z</time></trkpt><trkpt lat="43.4292852" lon="0.6095784"><ele>304.6666666666667</ele><time>2026-04-23T09:52:06.472Z</time></trkpt><trkpt lat="43.4292219" lon="0.6096134"><ele>304.5</ele><time>2026-04-23T09:52:08.472Z</time></trkpt><trkpt lat="43.4291502" lon="0.6096591"><ele>304.3333333333333</ele><time>2026-04-23T09:52:10.472Z</time></trkpt><trkpt lat="43.4290721" lon="0.6097094"><ele>304.16666666666663</ele><time>2026-04-23T09:52:12.472Z</time></trkpt><trkpt lat="43.4289893" lon="0.6097669"><ele>304.0</ele><time>2026-04-23T09:52:14.472Z</time></trkpt><trkpt lat="43.4288936" lon="0.6098277"><ele>302.8</ele><time>2026-04-23T09:52:16.473Z</time></trkpt><trkpt lat="43.4287977" lon="0.6098837"><ele>301.59999999999997</ele><time>2026-04-23T09:52:18.472Z</time></trkpt><trkpt lat="43.4287037" lon="0.6099563"><ele>300.4</ele><time>2026-04-23T09:52:20.472Z</time></trkpt><trkpt lat="43.4286154" lon="0.6100341"><ele>299.2</ele><time>2026-04-23T09:52:22.472Z</time></trkpt><trkpt lat="43.4285353" lon="0.6101167"><ele>298.0</ele><time>2026-04-23T09:52:24.473Z</time></trkpt><trkpt lat="43.428453" lon="0.6102018"><ele>298.0</ele><time>2026-04-23T09:52:26.473Z</time></trkpt><trkpt lat="43.4283778" lon="0.6102987"><ele>298.0</ele><time>2026-04-23T09:52:28.472Z</time></trkpt><trkpt lat="43.4283034" lon="0.6104119"><ele>298.0</ele><time>2026-04-23T09:52:30.472Z</time></trkpt><trkpt lat="43.4282316" lon="0.6105327"><ele>298.0</ele><time>2026-04-23T09:52:32.473Z</time></trkpt><trkpt lat="43.4281572" lon="0.6106564"><ele>298.0</ele><time>2026-04-23T09:52:34.473Z</time></trkpt><trkpt lat="43.4280865" lon="0.6107806"><ele>298.0</ele><time>2026-04-23T09:52:36.472Z</time></trkpt><trkpt lat="43.4280042" lon="0.6109122"><ele>298.0</ele><time>2026-04-23T09:52:38.472Z</time></trkpt><trkpt lat="43.4279366" lon="0.6110519"><ele>298.0</ele><time>2026-04-23T09:52:40.472Z</time></trkpt><trkpt lat="43.4278575" lon="0.6111814"><ele>298.0</ele><time>2026-04-23T09:52:42.472Z</time></trkpt><trkpt lat="43.4277692" lon="0.611289"><ele>298.4</ele><time>2026-04-23T09:52:44.472Z</time></trkpt><trkpt lat="43.4276756" lon="0.6113838"><ele>298.8</ele><time>2026-04-23T09:52:46.473Z</time></trkpt><trkpt lat="43.4275715" lon="0.6114407"><ele>299.2</ele><time>2026-04-23T09:52:48.472Z</time></trkpt><trkpt lat="43.4274646" lon="0.6114529"><ele>299.6</ele><time>2026-04-23T09:52:50.472Z</time></trkpt><trkpt lat="43.4273767" lon="0.6114378"><ele>300.0</ele><time>2026-04-23T09:52:52.473Z</time></trkpt><trkpt lat="43.4272953" lon="0.6114167"><ele>300.0</ele><time>2026-04-23T09:52:54.473Z</time></trkpt><trkpt lat="43.4272294" lon="0.6113964"><ele>300.0</ele><time>2026-04-23T09:52:56.473Z</time></trkpt><trkpt lat="43.4271676" lon="0.6113778"><ele>300.0</ele><time>2026-04-23T09:52:58.472Z</time></trkpt><trkpt lat="43.4270993" lon="0.6113718"><ele>300.0</ele><time>2026-04-23T09:53:00.472Z</time></trkpt><trkpt lat="43.4270228" lon="0.6113625"><ele>300.0</ele><time>2026-04-23T09:53:02.472Z</time></trkpt><trkpt lat="43.4269191" lon="0.6114026"><ele>300.0</ele><time>2026-04-23T09:53:04.472Z</time></trkpt><trkpt lat="43.426813" lon="0.611458"><ele>300.0</ele><time>2026-04-23T09:53:06.472Z</time></trkpt><trkpt lat="43.4267572" lon="0.6114984"><ele>300.0</ele><time>2026-04-23T09:53:07.472Z</time></trkpt><trkpt lat="43.4266329" lon="0.6115766"><ele>300.0</ele><time>2026-04-23T09:53:09.473Z</time></trkpt><trkpt lat="43.4265617" lon="0.6116154"><ele>300.0</ele><time>2026-04-23T09:53:10.472Z</time></trkpt><trkpt lat="43.4264955" lon="0.6116497"><ele>300.0</ele><time>2026-04-23T09:53:11.473Z</time></trkpt><trkpt lat="43.4264218" lon="0.611673"><ele>300.0</ele><time>2026-04-23T09:53:12.472Z</time></trkpt><trkpt lat="43.4263472" lon="0.6116828"><ele>300.0</ele><time>2026-04-23T09:53:13.472Z</time></trkpt><trkpt lat="43.4262743" lon="0.6116874"><ele>300.0</ele><time>2026-04-23T09:53:14.472Z</time></trkpt><trkpt lat="43.426204" lon="0.6116824"><ele>300.0</ele><time>2026-04-23T09:53:15.472Z</time></trkpt><trkpt lat="43.4261343" lon="0.6116736"><ele>300.0</ele><time>2026-04-23T09:53:16.473Z</time></trkpt><trkpt lat="43.4260678" lon="0.6116622"><ele>300.0</ele><time>2026-04-23T09:53:17.473Z</time></trkpt><trkpt lat="43.4260028" lon="0.6116522"><ele>300.0</ele><time>2026-04-23T09:53:18.472Z</time></trkpt><trkpt lat="43.4258843" lon="0.6116485"><ele>300.0</ele><time>2026-04-23T09:53:20.473Z</time></trkpt><trkpt lat="43.4257801" lon="0.6116635"><ele>300.0</ele><time>2026-04-23T09:53:22.472Z</time></trkpt><trkpt lat="43.4256941" lon="0.6116801"><ele>300.0</ele><time>2026-04-23T09:53:24.472Z</time></trkpt><trkpt lat="43.4256184" lon="0.6117084"><ele>300.0</ele><time>2026-04-23T09:53:26.472Z</time></trkpt><trkpt lat="43.4255493" lon="0.6117331"><ele>300.0</ele><time>2026-04-23T09:53:28.473Z</time></trkpt><trkpt lat="43.4254784" lon="0.6117553"><ele>300.0</ele><time>2026-04-23T09:53:30.472Z</time></trkpt><trkpt lat="43.4254068" lon="0.6117861"><ele>299.6666666666667</ele><time>2026-04-23T09:53:32.473Z</time></trkpt><trkpt lat="43.4253413" lon="0.6118132"><ele>299.3333333333333</ele><time>2026-04-23T09:53:34.472Z</time></trkpt><trkpt lat="43.42528" lon="0.6118409"><ele>299.0</ele><time>2026-04-23T09:53:36.473Z</time></trkpt><trkpt lat="43.4251959" lon="0.6118791"><ele>298.66666666666663</ele><time>2026-04-23T09:53:39.472Z</time></trkpt><trkpt lat="43.4251168" lon="0.6119026"><ele>298.3333333333333</ele><time>2026-04-23T09:53:42.472Z</time></trkpt><trkpt lat="43.4250434" lon="0.6119238"><ele>298.0</ele><time>2026-04-23T09:53:46.472Z</time></trkpt><trkpt lat="43.4249608" lon="0.6119294"><ele>298.0</ele><time>2026-04-23T09:53:50.472Z</time></trkpt><trkpt lat="43.4248636" lon="0.6119527"><ele>298.0</ele><time>2026-04-23T09:53:53.473Z</time></trkpt><trkpt lat="43.4247735" lon="0.6119499"><ele>298.0</ele><time>2026-04-23T09:53:55.472Z</time></trkpt><trkpt lat="43.42467" lon="0.61197"><ele>298.0</ele><time>2026-04-23T09:53:57.472Z</time></trkpt><trkpt lat="43.4245561" lon="0.6119864"><ele>298.0</ele><time>2026-04-23T09:53:59.472Z</time></trkpt><trkpt lat="43.4244927" lon="0.6119985"><ele>297.4</ele><time>2026-04-23T09:54:00.472Z</time></trkpt><trkpt lat="43.4243848" lon="0.6120076"><ele>296.8</ele><time>2026-04-23T09:54:02.472Z</time></trkpt><trkpt lat="43.4242759" lon="0.6120233"><ele>296.2</ele><time>2026-04-23T09:54:04.472Z</time></trkpt><trkpt lat="43.4241933" lon="0.6120124"><ele>295.6</ele><time>2026-04-23T09:54:06.473Z</time></trkpt><trkpt lat="43.4241086" lon="0.6119841"><ele>295.0</ele><time>2026-04-23T09:54:09.472Z</time></trkpt><trkpt lat="43.4241392" lon="0.6118816"><ele>295.0</ele><time>2026-04-23T09:54:13.472Z</time></trkpt><trkpt lat="43.424218" lon="0.6118185"><ele>295.0</ele><time>2026-04-23T09:54:16.472Z</time></trkpt><trkpt lat="43.4243046" lon="0.611749"><ele>295.0</ele><time>2026-04-23T09:54:19.472Z</time></trkpt><trkpt lat="43.4243662" lon="0.6116815"><ele>295.0</ele><time>2026-04-23T09:54:21.472Z</time></trkpt><trkpt lat="43.4244218" lon="0.6115944"><ele>295.0</ele><time>2026-04-23T09:54:23.472Z</time></trkpt><trkpt lat="43.4244787" lon="0.6115072"><ele>295.0</ele><time>2026-04-23T09:54:25.472Z</time></trkpt><trkpt lat="43.4245289" lon="0.6113978"><ele>295.0</ele><time>2026-04-23T09:54:27.472Z</time></trkpt><trkpt lat="43.4245757" lon="0.611298"><ele>295.0</ele><time>2026-04-23T09:54:29.472Z</time></trkpt><trkpt lat="43.4246157" lon="0.6111937"><ele>295.0</ele><time>2026-04-23T09:54:31.472Z</time></trkpt><trkpt lat="43.4246541" lon="0.6110651"><ele>295.0</ele><time>2026-04-23T09:54:33.472Z</time></trkpt><trkpt lat="43.4246859" lon="0.6109345"><ele>295.0</ele><time>2026-04-23T09:54:35.472Z</time></trkpt><trkpt lat="43.4247082" lon="0.6107986"><ele>294.8</ele><time>2026-04-23T09:54:37.472Z</time></trkpt><trkpt lat="43.4247239" lon="0.6106662"><ele>294.6</ele><time>2026-04-23T09:54:39.473Z</time></trkpt><trkpt lat="43.4247331" lon="0.610527"><ele>294.4</ele><time>2026-04-23T09:54:41.472Z</time></trkpt><trkpt lat="43.4247391" lon="0.6103772"><ele>294.2</ele><time>2026-04-23T09:54:43.472Z</time></trkpt><trkpt lat="43.424743" lon="0.6102197"><ele>294.0</ele><time>2026-04-23T09:54:45.472Z</time></trkpt><trkpt lat="43.424746" lon="0.6100654"><ele>294.0</ele><time>2026-04-23T09:54:47.472Z</time></trkpt><trkpt lat="43.4247499" lon="0.6099064"><ele>294.0</ele><time>2026-04-23T09:54:49.472Z</time></trkpt><trkpt lat="43.4247519" lon="0.6097497"><ele>294.0</ele><time>2026-04-23T09:54:51.472Z</time></trkpt><trkpt lat="43.4247521" lon="0.6095919"><ele>294.0</ele><time>2026-04-23T09:54:53.473Z</time></trkpt><trkpt lat="43.4247506" lon="0.6094305"><ele>292.25</ele><time>2026-04-23T09:54:55.472Z</time></trkpt><trkpt lat="43.4247503" lon="0.6092726"><ele>290.5</ele><time>2026-04-23T09:54:57.472Z</time></trkpt><trkpt lat="43.4247549" lon="0.6091135"><ele>288.75</ele><time>2026-04-23T09:54:59.472Z</time></trkpt><trkpt lat="43.4247654" lon="0.6089546"><ele>287.0</ele><time>2026-04-23T09:55:01.473Z</time></trkpt><trkpt lat="43.4247846" lon="0.6087879"><ele>285.2</ele><time>2026-04-23T09:55:03.472Z</time></trkpt><trkpt lat="43.424823" lon="0.6086262"><ele>283.4</ele><time>2026-04-23T09:55:05.472Z</time></trkpt><trkpt lat="43.4248998" lon="0.608486"><ele>281.6</ele><time>2026-04-23T09:55:07.472Z</time></trkpt><trkpt lat="43.4249448" lon="0.6084225"><ele>279.8</ele><time>2026-04-23T09:55:08.472Z</time></trkpt><trkpt lat="43.4250413" lon="0.6083233"><ele>278.0</ele><time>2026-04-23T09:55:10.473Z</time></trkpt><trkpt lat="43.4251273" lon="0.6082277"><ele>278.0</ele><time>2026-04-23T09:55:12.472Z</time></trkpt><trkpt lat="43.4251976" lon="0.6081105"><ele>278.0</ele><time>2026-04-23T09:55:14.473Z</time></trkpt><trkpt lat="43.4252371" lon="0.607977"><ele>278.0</ele><time>2026-04-23T09:55:16.472Z</time></trkpt><trkpt lat="43.4252384" lon="0.6078304"><ele>278.0</ele><time>2026-04-23T09:55:18.472Z</time></trkpt><trkpt lat="43.4252238" lon="0.6076846"><ele>278.0</ele><time>2026-04-23T09:55:20.473Z</time></trkpt><trkpt lat="43.4251982" lon="0.6075333"><ele>276.0</ele><time>2026-04-23T09:55:22.472Z</time></trkpt><trkpt lat="43.4251642" lon="0.6073811"><ele>274.0</ele><time>2026-04-23T09:55:24.472Z</time></trkpt><trkpt lat="43.4251273" lon="0.6072176"><ele>272.0</ele><time>2026-04-23T09:55:26.472Z</time></trkpt><trkpt lat="43.4250891" lon="0.6070606"><ele>270.0</ele><time>2026-04-23T09:55:28.472Z</time></trkpt><trkpt lat="43.4250524" lon="0.6069062"><ele>269.75</ele><time>2026-04-23T09:55:30.472Z</time></trkpt><trkpt lat="43.4250192" lon="0.6067486"><ele>269.5</ele><time>2026-04-23T09:55:32.472Z</time></trkpt><trkpt lat="43.4249837" lon="0.6066004"><ele>269.25</ele><time>2026-04-23T09:55:34.472Z</time></trkpt><trkpt lat="43.4249509" lon="0.6064503"><ele>269.0</ele><time>2026-04-23T09:55:36.472Z</time></trkpt><trkpt lat="43.4249251" lon="0.6063036"><ele>268.75</ele><time>2026-04-23T09:55:38.472Z</time></trkpt><trkpt lat="43.4249027" lon="0.6061343"><ele>268.5</ele><time>2026-04-23T09:55:40.473Z</time></trkpt><trkpt lat="43.4248931" lon="0.6059757"><ele>268.25</ele><time>2026-04-23T09:55:42.473Z</time></trkpt><trkpt lat="43.4248939" lon="0.6058068"><ele>268.0</ele><time>2026-04-23T09:55:44.472Z</time></trkpt><trkpt lat="43.4249014" lon="0.6056373"><ele>268.0</ele><time>2026-04-23T09:55:46.472Z</time></trkpt><trkpt lat="43.424919" lon="0.6054692"><ele>268.0</ele><time>2026-04-23T09:55:48.472Z</time></trkpt><trkpt lat="43.4249424" lon="0.6053139"><ele>268.0</ele><time>2026-04-23T09:55:50.472Z</time></trkpt><trkpt lat="43.4249673" lon="0.6051556"><ele>268.0</ele><time>2026-04-23T09:55:52.472Z</time></trkpt><trkpt lat="43.4249944" lon="0.6050018"><ele>266.8</ele><time>2026-04-23T09:55:54.472Z</time></trkpt><trkpt lat="43.4250203" lon="0.6048498"><ele>265.6</ele><time>2026-04-23T09:55:56.472Z</time></trkpt><trkpt lat="43.425035" lon="0.6047642"><ele>264.4</ele><time>2026-04-23T09:55:57.472Z</time></trkpt><trkpt lat="43.4250546" lon="0.6046008"><ele>263.2</ele><time>2026-04-23T09:55:59.472Z</time></trkpt><trkpt lat="43.4250696" lon="0.6044475"><ele>262.0</ele><time>2026-04-23T09:56:01.472Z</time></trkpt><trkpt lat="43.4250733" lon="0.6042864"><ele>260.5</ele><time>2026-04-23T09:56:03.472Z</time></trkpt><trkpt lat="43.4250821" lon="0.6041195"><ele>259.0</ele><time>2026-04-23T09:56:05.472Z</time></trkpt><trkpt lat="43.4250757" lon="0.6039625"><ele>257.5</ele><time>2026-04-23T09:56:07.472Z</time></trkpt><trkpt lat="43.4250662" lon="0.6037931"><ele>256.0</ele><time>2026-04-23T09:56:09.472Z</time></trkpt><trkpt lat="43.4250886" lon="0.6036409"><ele>254.75</ele><time>2026-04-23T09:56:11.472Z</time></trkpt><trkpt lat="43.4250763" lon="0.6034819"><ele>253.5</ele><time>2026-04-23T09:56:13.472Z</time></trkpt><trkpt lat="43.4250783" lon="0.6033418"><ele>252.25</ele><time>2026-04-23T09:56:15.472Z</time></trkpt><trkpt lat="43.4250892" lon="0.6031754"><ele>251.0</ele><time>2026-04-23T09:56:17.473Z</time></trkpt><trkpt lat="43.4251011" lon="0.6030076"><ele>251.00000000000003</ele><time>2026-04-23T09:56:19.472Z</time></trkpt><trkpt lat="43.4251018" lon="0.6029174"><ele>251.0</ele><time>2026-04-23T09:56:20.472Z</time></trkpt><trkpt lat="43.4251079" lon="0.6028298"><ele>251.0</ele><time>2026-04-23T09:56:21.472Z</time></trkpt><trkpt lat="43.4251127" lon="0.602665"><ele>251.0</ele><time>2026-04-23T09:56:23.472Z</time></trkpt><trkpt lat="43.4251145" lon="0.6025004"><ele>251.00000000000003</ele><time>2026-04-23T09:56:25.472Z</time></trkpt><trkpt lat="43.4251164" lon="0.6024112"><ele>251.0</ele><time>2026-04-23T09:56:26.472Z</time></trkpt><trkpt lat="43.425115" lon="0.602246"><ele>250.60000000000002</ele><time>2026-04-23T09:56:28.473Z</time></trkpt><trkpt lat="43.4251231" lon="0.602072"><ele>250.20000000000002</ele><time>2026-04-23T09:56:30.472Z</time></trkpt><trkpt lat="43.4251257" lon="0.6019837"><ele>249.79999999999998</ele><time>2026-04-23T09:56:31.472Z</time></trkpt><trkpt lat="43.4251354" lon="0.6018179"><ele>249.39999999999998</ele><time>2026-04-23T09:56:33.473Z</time></trkpt><trkpt lat="43.4251379" lon="0.601731"><ele>249.0</ele><time>2026-04-23T09:56:34.472Z</time></trkpt><trkpt lat="43.4251375" lon="0.6015609"><ele>247.79999999999998</ele><time>2026-04-23T09:56:36.472Z</time></trkpt><trkpt lat="43.4251548" lon="0.6014062"><ele>246.59999999999997</ele><time>2026-04-23T09:56:38.472Z</time></trkpt><trkpt lat="43.4251505" lon="0.6013169"><ele>245.4</ele><time>2026-04-23T09:56:39.472Z</time></trkpt><trkpt lat="43.4251588" lon="0.6011304"><ele>244.2</ele><time>2026-04-23T09:56:41.472Z</time></trkpt><trkpt lat="43.4251581" lon="0.601027"><ele>243.0</ele><time>2026-04-23T09:56:42.472Z</time></trkpt><trkpt lat="43.4251648" lon="0.6009391"><ele>242.57142857142856</ele><time>2026-04-23T09:56:43.472Z</time></trkpt><trkpt lat="43.4251689" lon="0.6008482"><ele>242.14285714285717</ele><time>2026-04-23T09:56:44.472Z</time></trkpt><trkpt lat="43.4251793" lon="0.6007422"><ele>241.71428571428572</ele><time>2026-04-23T09:56:45.472Z</time></trkpt><trkpt lat="43.4251691" lon="0.6006461"><ele>241.28571428571428</ele><time>2026-04-23T09:56:46.472Z</time></trkpt><trkpt lat="43.4251919" lon="0.6005544"><ele>240.85714285714283</ele><time>2026-04-23T09:56:47.472Z</time></trkpt><trkpt lat="43.4251973" lon="0.6004622"><ele>240.42857142857144</ele><time>2026-04-23T09:56:48.472Z</time></trkpt><trkpt lat="43.4252152" lon="0.6003658"><ele>240.0</ele><time>2026-04-23T09:56:49.472Z</time></trkpt><trkpt lat="43.4252309" lon="0.6002718"><ele>239.71428571428572</ele><time>2026-04-23T09:56:50.472Z</time></trkpt><trkpt lat="43.4252545" lon="0.6001842"><ele>239.42857142857142</ele><time>2026-04-23T09:56:51.473Z</time></trkpt><trkpt lat="43.4252771" lon="0.6000927"><ele>239.14285714285714</ele><time>2026-04-23T09:56:52.472Z</time></trkpt><trkpt lat="43.425292" lon="0.6000013"><ele>238.85714285714286</ele><time>2026-04-23T09:56:53.472Z</time></trkpt><trkpt lat="43.4253139" lon="0.5999101"><ele>238.57142857142856</ele><time>2026-04-23T09:56:54.472Z</time></trkpt><trkpt lat="43.4253425" lon="0.5998216"><ele>238.28571428571428</ele><time>2026-04-23T09:56:55.472Z</time></trkpt><trkpt lat="43.4253598" lon="0.5997274"><ele>238.0</ele><time>2026-04-23T09:56:56.472Z</time></trkpt><trkpt lat="43.4253782" lon="0.5996376"><ele>238.0</ele><time>2026-04-23T09:56:57.472Z</time></trkpt><trkpt lat="43.4254073" lon="0.5995495"><ele>238.0</ele><time>2026-04-23T09:56:58.473Z</time></trkpt><trkpt lat="43.4254293" lon="0.5994564"><ele>238.0</ele><time>2026-04-23T09:56:59.472Z</time></trkpt><trkpt lat="43.4254587" lon="0.599373"><ele>238.0</ele><time>2026-04-23T09:57:00.472Z</time></trkpt><trkpt lat="43.4254879" lon="0.5992917"><ele>238.0</ele><time>2026-04-23T09:57:01.472Z</time></trkpt><trkpt lat="43.4255211" lon="0.5992076"><ele>238.0</ele><time>2026-04-23T09:57:02.473Z</time></trkpt><trkpt lat="43.4255534" lon="0.5991218"><ele>238.0</ele><time>2026-04-23T09:57:03.472Z</time></trkpt><trkpt lat="43.425583" lon="0.5990344"><ele>237.71428571428572</ele><time>2026-04-23T09:57:04.472Z</time></trkpt><trkpt lat="43.4256158" lon="0.5989441"><ele>237.42857142857144</ele><time>2026-04-23T09:57:05.473Z</time></trkpt><trkpt lat="43.4256569" lon="0.5988536"><ele>237.14285714285714</ele><time>2026-04-23T09:57:06.472Z</time></trkpt><trkpt lat="43.4257093" lon="0.5987632"><ele>236.85714285714286</ele><time>2026-04-23T09:57:07.472Z</time></trkpt><trkpt lat="43.4257398" lon="0.5986751"><ele>236.57142857142858</ele><time>2026-04-23T09:57:08.472Z</time></trkpt><trkpt lat="43.4257665" lon="0.5985905"><ele>236.28571428571428</ele><time>2026-04-23T09:57:09.472Z</time></trkpt><trkpt lat="43.4257937" lon="0.5985065"><ele>236.0</ele><time>2026-04-23T09:57:10.472Z</time></trkpt><trkpt lat="43.4258271" lon="0.5984184"><ele>234.57142857142856</ele><time>2026-04-23T09:57:11.472Z</time></trkpt><trkpt lat="43.4258604" lon="0.5983348"><ele>233.14285714285717</ele><time>2026-04-23T09:57:12.473Z</time></trkpt><trkpt lat="43.4258942" lon="0.598243"><ele>231.71428571428572</ele><time>2026-04-23T09:57:13.472Z</time></trkpt><trkpt lat="43.4259252" lon="0.5981532"><ele>230.28571428571428</ele><time>2026-04-23T09:57:14.472Z</time></trkpt><trkpt lat="43.4259543" lon="0.5980665"><ele>228.85714285714283</ele><time>2026-04-23T09:57:15.472Z</time></trkpt><trkpt lat="43.4259909" lon="0.5979801"><ele>227.42857142857144</ele><time>2026-04-23T09:57:16.473Z</time></trkpt><trkpt lat="43.4260188" lon="0.5978909"><ele>226.0</ele><time>2026-04-23T09:57:17.472Z</time></trkpt><trkpt lat="43.4260514" lon="0.5978062"><ele>225.20000000000002</ele><time>2026-04-23T09:57:18.472Z</time></trkpt><trkpt lat="43.426076" lon="0.5977227"><ele>224.40000000000003</ele><time>2026-04-23T09:57:19.472Z</time></trkpt><trkpt lat="43.4261289" lon="0.5975753"><ele>223.6</ele><time>2026-04-23T09:57:21.472Z</time></trkpt><trkpt lat="43.426176" lon="0.5974411"><ele>222.8</ele><time>2026-04-23T09:57:23.473Z</time></trkpt><trkpt lat="43.4262226" lon="0.597312"><ele>222.0</ele><time>2026-04-23T09:57:25.472Z</time></trkpt><trkpt lat="43.4262749" lon="0.5971745"><ele>222.66666666666666</ele><time>2026-04-23T09:57:27.472Z</time></trkpt><trkpt lat="43.4263272" lon="0.5970269"><ele>223.33333333333331</ele><time>2026-04-23T09:57:29.472Z</time></trkpt><trkpt lat="43.4263801" lon="0.5968689"><ele>224.0</ele><time>2026-04-23T09:57:31.472Z</time></trkpt><trkpt lat="43.4264069" lon="0.5967867"><ele>224.66666666666666</ele><time>2026-04-23T09:57:32.472Z</time></trkpt><trkpt lat="43.4264362" lon="0.5967045"><ele>225.33333333333331</ele><time>2026-04-23T09:57:33.472Z</time></trkpt><trkpt lat="43.4264642" lon="0.5966203"><ele>226.0</ele><time>2026-04-23T09:57:34.472Z</time></trkpt><trkpt lat="43.4264967" lon="0.596533"><ele>225.99999999999997</ele><time>2026-04-23T09:57:35.472Z</time></trkpt><trkpt lat="43.4265293" lon="0.5964428"><ele>226.0</ele><time>2026-04-23T09:57:36.473Z</time></trkpt><trkpt lat="43.4265615" lon="0.5963504"><ele>226.0</ele><time>2026-04-23T09:57:37.472Z</time></trkpt><trkpt lat="43.4265962" lon="0.5962545"><ele>226.0</ele><time>2026-04-23T09:57:38.472Z</time></trkpt><trkpt lat="43.4266316" lon="0.5961572"><ele>225.99999999999997</ele><time>2026-04-23T09:57:39.473Z</time></trkpt><trkpt lat="43.4266646" lon="0.5960624"><ele>226.0</ele><time>2026-04-23T09:57:40.472Z</time></trkpt><trkpt lat="43.4266988" lon="0.5959661"><ele>225.2857142857143</ele><time>2026-04-23T09:57:41.472Z</time></trkpt><trkpt lat="43.4267342" lon="0.5958751"><ele>224.57142857142856</ele><time>2026-04-23T09:57:42.472Z</time></trkpt><trkpt lat="43.4267643" lon="0.5957863"><ele>223.85714285714286</ele><time>2026-04-23T09:57:43.472Z</time></trkpt><trkpt lat="43.4267958" lon="0.5956967"><ele>223.14285714285717</ele><time>2026-04-23T09:57:44.472Z</time></trkpt><trkpt lat="43.4268279" lon="0.5956121"><ele>222.42857142857144</ele><time>2026-04-23T09:57:45.472Z</time></trkpt><trkpt lat="43.4268528" lon="0.5955275"><ele>221.71428571428572</ele><time>2026-04-23T09:57:46.472Z</time></trkpt><trkpt lat="43.4268809" lon="0.5954411"><ele>221.0</ele><time>2026-04-23T09:57:47.472Z</time></trkpt><trkpt lat="43.4269085" lon="0.5953609"><ele>220.57142857142858</ele><time>2026-04-23T09:57:48.472Z</time></trkpt><trkpt lat="43.4269359" lon="0.5952783"><ele>220.14285714285714</ele><time>2026-04-23T09:57:49.472Z</time></trkpt><trkpt lat="43.4269641" lon="0.5951966"><ele>219.71428571428572</ele><time>2026-04-23T09:57:50.472Z</time></trkpt><trkpt lat="43.4269929" lon="0.5951186"><ele>219.28571428571428</ele><time>2026-04-23T09:57:51.473Z</time></trkpt><trkpt lat="43.4270225" lon="0.59504"><ele>218.85714285714286</ele><time>2026-04-23T09:57:52.473Z</time></trkpt><trkpt lat="43.4270498" lon="0.5949563"><ele>218.42857142857144</ele><time>2026-04-23T09:57:53.472Z</time></trkpt><trkpt lat="43.4270787" lon="0.5948754"><ele>218.0</ele><time>2026-04-23T09:57:54.472Z</time></trkpt><trkpt lat="43.4271048" lon="0.5947946"><ele>218.0</ele><time>2026-04-23T09:57:55.473Z</time></trkpt><trkpt lat="43.4271413" lon="0.5947145"><ele>218.0</ele><time>2026-04-23T09:57:56.473Z</time></trkpt><trkpt lat="43.4271732" lon="0.5946335"><ele>218.0</ele><time>2026-04-23T09:57:57.472Z</time></trkpt><trkpt lat="43.4272024" lon="0.5945541"><ele>218.0</ele><time>2026-04-23T09:57:58.472Z</time></trkpt><trkpt lat="43.4272289" lon="0.5944706"><ele>218.0</ele><time>2026-04-23T09:57:59.472Z</time></trkpt><trkpt lat="43.4272545" lon="0.5943897"><ele>218.0</ele><time>2026-04-23T09:58:00.472Z</time></trkpt><trkpt lat="43.4272845" lon="0.594309"><ele>218.0</ele><time>2026-04-23T09:58:01.472Z</time></trkpt><trkpt lat="43.4273145" lon="0.5942282"><ele>217.83333333333334</ele><time>2026-04-23T09:58:02.472Z</time></trkpt><trkpt lat="43.427341" lon="0.5941467"><ele>217.66666666666669</ele><time>2026-04-23T09:58:03.472Z</time></trkpt><trkpt lat="43.4273722" lon="0.5940677"><ele>217.5</ele><time>2026-04-23T09:58:04.472Z</time></trkpt><trkpt lat="43.4273995" lon="0.5939881"><ele>217.33333333333331</ele><time>2026-04-23T09:58:05.472Z</time></trkpt><trkpt lat="43.4274534" lon="0.5938377"><ele>217.16666666666666</ele><time>2026-04-23T09:58:07.472Z</time></trkpt><trkpt lat="43.4275064" lon="0.5936936"><ele>217.0</ele><time>2026-04-23T09:58:09.472Z</time></trkpt><trkpt lat="43.4275614" lon="0.5935412"><ele>216.99999999999997</ele><time>2026-04-23T09:58:11.472Z</time></trkpt><trkpt lat="43.4276188" lon="0.5933867"><ele>217.0</ele><time>2026-04-23T09:58:13.472Z</time></trkpt><trkpt lat="43.427646" lon="0.5933039"><ele>217.0</ele><time>2026-04-23T09:58:14.472Z</time></trkpt><trkpt lat="43.4276742" lon="0.5932205"><ele>217.0</ele><time>2026-04-23T09:58:15.472Z</time></trkpt><trkpt lat="43.4277013" lon="0.5931347"><ele>216.99999999999997</ele><time>2026-04-23T09:58:16.472Z</time></trkpt><trkpt lat="43.427734" lon="0.5930532"><ele>217.0</ele><time>2026-04-23T09:58:17.472Z</time></trkpt><trkpt lat="43.427761" lon="0.5929692"><ele>217.0</ele><time>2026-04-23T09:58:18.472Z</time></trkpt><trkpt lat="43.4277908" lon="0.5928847"><ele>217.0</ele><time>2026-04-23T09:58:19.473Z</time></trkpt><trkpt lat="43.4278224" lon="0.5927969"><ele>217.0</ele><time>2026-04-23T09:58:20.473Z</time></trkpt><trkpt lat="43.4278557" lon="0.5927126"><ele>217.0</ele><time>2026-04-23T09:58:21.472Z</time></trkpt><trkpt lat="43.4278858" lon="0.5926348"><ele>217.0</ele><time>2026-04-23T09:58:22.472Z</time></trkpt><trkpt lat="43.4279141" lon="0.5925552"><ele>217.0</ele><time>2026-04-23T09:58:23.473Z</time></trkpt><trkpt lat="43.4279454" lon="0.5924746"><ele>217.0</ele><time>2026-04-23T09:58:24.472Z</time></trkpt><trkpt lat="43.4279739" lon="0.5923953"><ele>216.57142857142858</ele><time>2026-04-23T09:58:25.473Z</time></trkpt><trkpt lat="43.4280026" lon="0.5923154"><ele>216.14285714285714</ele><time>2026-04-23T09:58:26.473Z</time></trkpt><trkpt lat="43.4280311" lon="0.5922351"><ele>215.71428571428572</ele><time>2026-04-23T09:58:27.473Z</time></trkpt><trkpt lat="43.4280614" lon="0.5921552"><ele>215.28571428571428</ele><time>2026-04-23T09:58:28.473Z</time></trkpt><trkpt lat="43.4280877" lon="0.5920735"><ele>214.85714285714286</ele><time>2026-04-23T09:58:29.472Z</time></trkpt><trkpt lat="43.4281206" lon="0.5919899"><ele>214.42857142857144</ele><time>2026-04-23T09:58:30.472Z</time></trkpt><trkpt lat="43.4281474" lon="0.5919082"><ele>214.0</ele><time>2026-04-23T09:58:31.472Z</time></trkpt><trkpt lat="43.4281736" lon="0.5918258"><ele>213.71428571428572</ele><time>2026-04-23T09:58:32.472Z</time></trkpt><trkpt lat="43.4282017" lon="0.5917446"><ele>213.42857142857144</ele><time>2026-04-23T09:58:33.472Z</time></trkpt><trkpt lat="43.4282325" lon="0.591661"><ele>213.14285714285717</ele><time>2026-04-23T09:58:34.472Z</time></trkpt><trkpt lat="43.4282628" lon="0.5915758"><ele>212.85714285714286</ele><time>2026-04-23T09:58:35.472Z</time></trkpt><trkpt lat="43.4282942" lon="0.5914919"><ele>212.57142857142856</ele><time>2026-04-23T09:58:36.472Z</time></trkpt><trkpt lat="43.4283223" lon="0.591407"><ele>212.2857142857143</ele><time>2026-04-23T09:58:37.472Z</time></trkpt><trkpt lat="43.4283491" lon="0.591323"><ele>212.0</ele><time>2026-04-23T09:58:38.472Z</time></trkpt><trkpt lat="43.42838" lon="0.5912401"><ele>212.0</ele><time>2026-04-23T09:58:39.473Z</time></trkpt><trkpt lat="43.4284115" lon="0.5911585"><ele>212.0</ele><time>2026-04-23T09:58:40.472Z</time></trkpt><trkpt lat="43.428438" lon="0.5910763"><ele>212.0</ele><time>2026-04-23T09:58:41.472Z</time></trkpt><trkpt lat="43.4284667" lon="0.5909886"><ele>212.0</ele><time>2026-04-23T09:58:42.472Z</time></trkpt><trkpt lat="43.428498" lon="0.5909023"><ele>212.0</ele><time>2026-04-23T09:58:43.473Z</time></trkpt><trkpt lat="43.4285278" lon="0.5908186"><ele>212.0</ele><time>2026-04-23T09:58:44.472Z</time></trkpt><trkpt lat="43.4285534" lon="0.5907296"><ele>212.0</ele><time>2026-04-23T09:58:45.472Z</time></trkpt><trkpt lat="43.4285762" lon="0.5906426"><ele>212.0</ele><time>2026-04-23T09:58:46.473Z</time></trkpt><trkpt lat="43.4285974" lon="0.5905561"><ele>212.0</ele><time>2026-04-23T09:58:47.472Z</time></trkpt><trkpt lat="43.4286266" lon="0.5903897"><ele>212.0</ele><time>2026-04-23T09:58:49.473Z</time></trkpt><trkpt lat="43.4286415" lon="0.5903037"><ele>212.0</ele><time>2026-04-23T09:58:50.472Z</time></trkpt><trkpt lat="43.4286528" lon="0.5902164"><ele>212.0</ele><time>2026-04-23T09:58:51.472Z</time></trkpt><trkpt lat="43.4286644" lon="0.590128"><ele>212.0</ele><time>2026-04-23T09:58:52.472Z</time></trkpt><trkpt lat="43.4286745" lon="0.5900399"><ele>212.0</ele><time>2026-04-23T09:58:53.472Z</time></trkpt><trkpt lat="43.428687" lon="0.589954"><ele>211.66666666666669</ele><time>2026-04-23T09:58:54.472Z</time></trkpt><trkpt lat="43.4286941" lon="0.5898653"><ele>211.33333333333334</ele><time>2026-04-23T09:58:55.472Z</time></trkpt><trkpt lat="43.4287032" lon="0.589777"><ele>211.0</ele><time>2026-04-23T09:58:56.473Z</time></trkpt><trkpt lat="43.4287171" lon="0.5896913"><ele>210.66666666666669</ele><time>2026-04-23T09:58:57.473Z</time></trkpt><trkpt lat="43.4287295" lon="0.5895116"><ele>210.33333333333334</ele><time>2026-04-23T09:58:59.472Z</time></trkpt><trkpt lat="43.428732" lon="0.5894177"><ele>210.0</ele><time>2026-04-23T09:59:00.472Z</time></trkpt><trkpt lat="43.4287295" lon="0.589324"><ele>209.57142857142858</ele><time>2026-04-23T09:59:01.472Z</time></trkpt><trkpt lat="43.428739" lon="0.5892285"><ele>209.14285714285714</ele><time>2026-04-23T09:59:02.472Z</time></trkpt><trkpt lat="43.4287382" lon="0.5891399"><ele>208.71428571428572</ele><time>2026-04-23T09:59:03.472Z</time></trkpt><trkpt lat="43.4287432" lon="0.5890461"><ele>208.28571428571428</ele><time>2026-04-23T09:59:04.472Z</time></trkpt><trkpt lat="43.4287564" lon="0.5889571"><ele>207.85714285714286</ele><time>2026-04-23T09:59:05.472Z</time></trkpt><trkpt lat="43.428768" lon="0.5888674"><ele>207.42857142857144</ele><time>2026-04-23T09:59:06.472Z</time></trkpt><trkpt lat="43.4287754" lon="0.5887809"><ele>207.0</ele><time>2026-04-23T09:59:07.472Z</time></trkpt><trkpt lat="43.4287852" lon="0.5886922"><ele>206.5</ele><time>2026-04-23T09:59:08.472Z</time></trkpt><trkpt lat="43.4288044" lon="0.5885233"><ele>206.0</ele><time>2026-04-23T09:59:10.472Z</time></trkpt><trkpt lat="43.4288197" lon="0.5883555"><ele>205.5</ele><time>2026-04-23T09:59:12.472Z</time></trkpt><trkpt lat="43.4288295" lon="0.5881911"><ele>205.0</ele><time>2026-04-23T09:59:14.472Z</time></trkpt><trkpt lat="43.4288438" lon="0.5880264"><ele>205.0</ele><time>2026-04-23T09:59:16.472Z</time></trkpt><trkpt lat="43.4288606" lon="0.5878711"><ele>205.0</ele><time>2026-04-23T09:59:18.472Z</time></trkpt><trkpt lat="43.428875" lon="0.5877171"><ele>205.0</ele><time>2026-04-23T09:59:20.472Z</time></trkpt><trkpt lat="43.4288884" lon="0.5875627"><ele>205.0</ele><time>2026-04-23T09:59:22.472Z</time></trkpt><trkpt lat="43.4288985" lon="0.5874159"><ele>205.0</ele><time>2026-04-23T09:59:24.473Z</time></trkpt><trkpt lat="43.4289113" lon="0.5872734"><ele>204.6</ele><time>2026-04-23T09:59:26.472Z</time></trkpt><trkpt lat="43.4289258" lon="0.5871263"><ele>204.2</ele><time>2026-04-23T09:59:28.472Z</time></trkpt><trkpt lat="43.4289399" lon="0.5869831"><ele>203.8</ele><time>2026-04-23T09:59:30.472Z</time></trkpt><trkpt lat="43.4289576" lon="0.5868426"><ele>203.4</ele><time>2026-04-23T09:59:32.472Z</time></trkpt><trkpt lat="43.4289713" lon="0.5866997"><ele>203.0</ele><time>2026-04-23T09:59:34.472Z</time></trkpt><trkpt lat="43.4289731" lon="0.5865592"><ele>202.4</ele><time>2026-04-23T09:59:36.472Z</time></trkpt><trkpt lat="43.4289928" lon="0.5864224"><ele>201.8</ele><time>2026-04-23T09:59:38.472Z</time></trkpt><trkpt lat="43.4290062" lon="0.5862819"><ele>201.2</ele><time>2026-04-23T09:59:40.472Z</time></trkpt><trkpt lat="43.4290151" lon="0.5861572"><ele>200.6</ele><time>2026-04-23T09:59:42.472Z</time></trkpt><trkpt lat="43.4290276" lon="0.5860418"><ele>200.0</ele><time>2026-04-23T09:59:44.472Z</time></trkpt><trkpt lat="43.4290378" lon="0.5859243"><ele>199.83333333333334</ele><time>2026-04-23T09:59:46.472Z</time></trkpt><trkpt lat="43.429053" lon="0.5858021"><ele>199.66666666666669</ele><time>2026-04-23T09:59:48.472Z</time></trkpt><trkpt lat="43.4290622" lon="0.5856833"><ele>199.5</ele><time>2026-04-23T09:59:50.472Z</time></trkpt><trkpt lat="43.4290739" lon="0.5855646"><ele>199.33333333333331</ele><time>2026-04-23T09:59:52.472Z</time></trkpt><trkpt lat="43.4290821" lon="0.5854476"><ele>199.16666666666666</ele><time>2026-04-23T09:59:54.472Z</time></trkpt><trkpt lat="43.4290955" lon="0.5853301"><ele>199.0</ele><time>2026-04-23T09:59:56.472Z</time></trkpt><trkpt lat="43.4291105" lon="0.5852148"><ele>198.83333333333331</ele><time>2026-04-23T09:59:58.472Z</time></trkpt><trkpt lat="43.4291184" lon="0.5851033"><ele>198.66666666666666</ele><time>2026-04-23T10:00:00.472Z</time></trkpt><trkpt lat="43.4291246" lon="0.5850018"><ele>198.5</ele><time>2026-04-23T10:00:02.472Z</time></trkpt><trkpt lat="43.4291364" lon="0.5848977"><ele>198.33333333333331</ele><time>2026-04-23T10:00:04.472Z</time></trkpt><trkpt lat="43.429145" lon="0.5847803"><ele>198.16666666666666</ele><time>2026-04-23T10:00:06.472Z</time></trkpt><trkpt lat="43.4291484" lon="0.5846707"><ele>198.0</ele><time>2026-04-23T10:00:08.472Z</time></trkpt><trkpt lat="43.4291599" lon="0.5845554"><ele>198.5</ele><time>2026-04-23T10:00:10.473Z</time></trkpt><trkpt lat="43.4291646" lon="0.5844423"><ele>199.0</ele><time>2026-04-23T10:00:12.472Z</time></trkpt><trkpt lat="43.429181" lon="0.5843272"><ele>199.5</ele><time>2026-04-23T10:00:14.472Z</time></trkpt><trkpt lat="43.4291952" lon="0.5842105"><ele>200.0</ele><time>2026-04-23T10:00:16.472Z</time></trkpt><trkpt lat="43.429198" lon="0.5840884"><ele>200.5</ele><time>2026-04-23T10:00:18.472Z</time></trkpt><trkpt lat="43.4292063" lon="0.5839702"><ele>201.0</ele><time>2026-04-23T10:00:20.472Z</time></trkpt><trkpt lat="43.4292165" lon="0.5838488"><ele>201.0</ele><time>2026-04-23T10:00:22.472Z</time></trkpt><trkpt lat="43.429232" lon="0.5837305"><ele>201.0</ele><time>2026-04-23T10:00:24.472Z</time></trkpt><trkpt lat="43.4292397" lon="0.583613"><ele>201.0</ele><time>2026-04-23T10:00:26.473Z</time></trkpt><trkpt lat="43.4292418" lon="0.5834938"><ele>201.0</ele><time>2026-04-23T10:00:28.472Z</time></trkpt><trkpt lat="43.429245" lon="0.5833803"><ele>201.0</ele><time>2026-04-23T10:00:30.472Z</time></trkpt><trkpt lat="43.4292577" lon="0.5832691"><ele>201.0</ele><time>2026-04-23T10:00:32.472Z</time></trkpt><trkpt lat="43.429275" lon="0.5831567"><ele>201.0</ele><time>2026-04-23T10:00:34.472Z</time></trkpt><trkpt lat="43.4292861" lon="0.5830424"><ele>201.0</ele><time>2026-04-23T10:00:36.472Z</time></trkpt><trkpt lat="43.4293007" lon="0.5829288"><ele>201.0</ele><time>2026-04-23T10:00:38.473Z</time></trkpt><trkpt lat="43.4293112" lon="0.5828121"><ele>201.0</ele><time>2026-04-23T10:00:40.473Z</time></trkpt><trkpt lat="43.4293225" lon="0.5826972"><ele>201.0</ele><time>2026-04-23T10:00:42.472Z</time></trkpt><trkpt lat="43.4293314" lon="0.5825828"><ele>201.0</ele><time>2026-04-23T10:00:44.472Z</time></trkpt><trkpt lat="43.4293368" lon="0.5824644"><ele>201.16666666666666</ele><time>2026-04-23T10:00:46.472Z</time></trkpt><trkpt lat="43.4293455" lon="0.5823509"><ele>201.33333333333331</ele><time>2026-04-23T10:00:48.472Z</time></trkpt><trkpt lat="43.4293548" lon="0.5822375"><ele>201.5</ele><time>2026-04-23T10:00:50.472Z</time></trkpt><trkpt lat="43.4293604" lon="0.5821215"><ele>201.66666666666666</ele><time>2026-04-23T10:00:52.472Z</time></trkpt><trkpt lat="43.4293685" lon="0.5820092"><ele>201.83333333333331</ele><time>2026-04-23T10:00:54.472Z</time></trkpt><trkpt lat="43.4293828" lon="0.5818952"><ele>202.0</ele><time>2026-04-23T10:00:56.473Z</time></trkpt><trkpt lat="43.4293957" lon="0.5817833"><ele>201.99999999999997</ele><time>2026-04-23T10:00:58.472Z</time></trkpt><trkpt lat="43.4294069" lon="0.5816738"><ele>202.0</ele><time>2026-04-23T10:01:00.472Z</time></trkpt><trkpt lat="43.429415" lon="0.58157"><ele>202.0</ele><time>2026-04-23T10:01:02.472Z</time></trkpt><trkpt lat="43.4294324" lon="0.581478"><ele>202.0</ele><time>2026-04-23T10:01:04.472Z</time></trkpt><trkpt lat="43.4294765" lon="0.5813999"><ele>201.99999999999997</ele><time>2026-04-23T10:01:06.472Z</time></trkpt><trkpt lat="43.4295825" lon="0.5814046"><ele>202.0</ele><time>2026-04-23T10:01:08.473Z</time></trkpt><trkpt lat="43.4296713" lon="0.5814465"><ele>202.0</ele><time>2026-04-23T10:01:10.472Z</time></trkpt><trkpt lat="43.4297658" lon="0.5814966"><ele>202.0</ele><time>2026-04-23T10:01:12.472Z</time></trkpt><trkpt lat="43.42987" lon="0.5815397"><ele>202.0</ele><time>2026-04-23T10:01:14.472Z</time></trkpt><trkpt lat="43.4299683" lon="0.5815925"><ele>202.0</ele><time>2026-04-23T10:01:16.472Z</time></trkpt><trkpt lat="43.4300739" lon="0.5816457"><ele>202.0</ele><time>2026-04-23T10:01:18.472Z</time></trkpt><trkpt lat="43.4301728" lon="0.5816929"><ele>202.0</ele><time>2026-04-23T10:01:20.473Z</time></trkpt><trkpt lat="43.4302753" lon="0.5817467"><ele>202.0</ele><time>2026-04-23T10:01:22.472Z</time></trkpt><trkpt lat="43.4303679" lon="0.5817765"><ele>202.0</ele><time>2026-04-23T10:01:24.472Z</time></trkpt><trkpt lat="43.4304604" lon="0.5818065"><ele>202.0</ele><time>2026-04-23T10:01:26.473Z</time></trkpt><trkpt lat="43.430551" lon="0.5818159"><ele>202.0</ele><time>2026-04-23T10:01:28.472Z</time></trkpt><trkpt lat="43.4306335" lon="0.5818278"><ele>201.99999999999997</ele><time>2026-04-23T10:01:30.472Z</time></trkpt><trkpt lat="43.4307136" lon="0.5818364"><ele>202.0</ele><time>2026-04-23T10:01:32.472Z</time></trkpt><trkpt lat="43.4307862" lon="0.5818448"><ele>202.0</ele><time>2026-04-23T10:01:34.472Z</time></trkpt><trkpt lat="43.4308407" lon="0.581894"><ele>202.0</ele><time>2026-04-23T10:01:36.472Z</time></trkpt><trkpt lat="43.4308573" lon="0.5820081"><ele>201.99999999999997</ele><time>2026-04-23T10:01:39.473Z</time></trkpt><trkpt lat="43.4308689" lon="0.5821302"><ele>202.0</ele><time>2026-04-23T10:01:42.472Z</time></trkpt><trkpt lat="43.430885" lon="0.5822223"><ele>201.85714285714286</ele><time>2026-04-23T10:01:44.472Z</time></trkpt><trkpt lat="43.430897" lon="0.5823166"><ele>201.71428571428572</ele><time>2026-04-23T10:01:46.472Z</time></trkpt><trkpt lat="43.430906" lon="0.5824148"><ele>201.57142857142856</ele><time>2026-04-23T10:01:48.472Z</time></trkpt><trkpt lat="43.4309154" lon="0.5825124"><ele>201.42857142857144</ele><time>2026-04-23T10:01:50.472Z</time></trkpt><trkpt lat="43.4309197" lon="0.5826076"><ele>201.2857142857143</ele><time>2026-04-23T10:01:52.472Z</time></trkpt><trkpt lat="43.4309248" lon="0.5827062"><ele>201.14285714285714</ele><time>2026-04-23T10:01:54.472Z</time></trkpt><trkpt lat="43.4309332" lon="0.5827995"><ele>201.0</ele><time>2026-04-23T10:01:56.473Z</time></trkpt><trkpt lat="43.4309415" lon="0.5828857"><ele>200.83333333333334</ele><time>2026-04-23T10:01:58.473Z</time></trkpt><trkpt lat="43.4309527" lon="0.5830124"><ele>200.66666666666669</ele><time>2026-04-23T10:02:01.472Z</time></trkpt><trkpt lat="43.43096" lon="0.5831403"><ele>200.5</ele><time>2026-04-23T10:02:04.472Z</time></trkpt><trkpt lat="43.4309686" lon="0.583261"><ele>200.33333333333334</ele><time>2026-04-23T10:02:07.472Z</time></trkpt><trkpt lat="43.4309742" lon="0.5833873"><ele>200.16666666666669</ele><time>2026-04-23T10:02:10.472Z</time></trkpt><trkpt lat="43.4309968" lon="0.5834763"><ele>200.0</ele><time>2026-04-23T10:02:12.472Z</time></trkpt><trkpt lat="43.4310612" lon="0.5835196"><ele>200.00000000000003</ele><time>2026-04-23T10:02:14.472Z</time></trkpt><trkpt lat="43.4311309" lon="0.5835088"><ele>200.0</ele><time>2026-04-23T10:02:16.472Z</time></trkpt><trkpt lat="43.431196" lon="0.5834989"><ele>200.0</ele><time>2026-04-23T10:02:18.472Z</time></trkpt><trkpt lat="43.431265" lon="0.5834919"><ele>200.0</ele><time>2026-04-23T10:02:20.472Z</time></trkpt><trkpt lat="43.4313553" lon="0.5834853"><ele>200.00000000000003</ele><time>2026-04-23T10:02:23.472Z</time></trkpt><trkpt lat="43.4314359" lon="0.5834774"><ele>200.0</ele><time>2026-04-23T10:02:26.472Z</time></trkpt><trkpt lat="43.4315108" lon="0.583468"><ele>200.00000000000003</ele><time>2026-04-23T10:02:29.473Z</time></trkpt><trkpt lat="43.4315802" lon="0.5834653"><ele>200.0</ele><time>2026-04-23T10:02:32.472Z</time></trkpt><trkpt lat="43.4316483" lon="0.5834675"><ele>200.0</ele><time>2026-04-23T10:02:35.473Z</time></trkpt><trkpt lat="43.4317159" lon="0.5834669"><ele>200.0</ele><time>2026-04-23T10:02:38.473Z</time></trkpt><trkpt lat="43.4317819" lon="0.5834596"><ele>200.0</ele><time>2026-04-23T10:02:41.473Z</time></trkpt><trkpt lat="43.4318649" lon="0.5834696"><ele>200.00000000000003</ele><time>2026-04-23T10:02:45.472Z</time></trkpt><trkpt lat="43.4318961" lon="0.5835801"><ele>200.0</ele><time>2026-04-23T10:02:48.472Z</time></trkpt><trkpt lat="43.4319033" lon="0.5836974"><ele>200.00000000000003</ele><time>2026-04-23T10:02:51.472Z</time></trkpt><trkpt lat="43.4319821" lon="0.5837489"><ele>200.0</ele><time>2026-04-23T10:02:54.472Z</time></trkpt><trkpt lat="43.4320735" lon="0.5837328"><ele>200.0</ele><time>2026-04-23T10:02:57.472Z</time></trkpt><trkpt lat="43.4321548" lon="0.5837152"><ele>200.0</ele><time>2026-04-23T10:03:00.472Z</time></trkpt><trkpt lat="43.432214" lon="0.5836792"><ele>200.00000000000003</ele><time>2026-04-23T10:03:03.472Z</time></trkpt><trkpt lat="43.4322818" lon="0.5836967"><ele>200.0</ele><time>2026-04-23T10:03:06.472Z</time></trkpt><trkpt lat="43.4323484" lon="0.5837117"><ele>203.0</ele><time>2026-04-23T10:03:09.473Z</time></trkpt><trkpt lat="43.4324148" lon="0.5836936"><ele>203.0</ele><time>2026-04-23T10:03:12.472Z</time></trkpt><trkpt lat="43.4323677" lon="0.5836313"><ele>201.0</ele><time>2026-04-23T10:03:28.473Z</time></trkpt></trkseg></trk></gpx>